<?xml version="1.0" encoding="UTF-8" standalone="no" ?>
<gpx xmlns="http://www.topografix.com/GPX/1/1" xmlns:xsi="http://www.w3.org/2001/XMLSchema-instance" xsi:schemaLocation="http://www.topografix.com/GPX/1/1 http://www.topografix.com/GPX/1/1/gpx.xsd" version="1.1" creator="VisuGPX - https://www.visugpx.com">
  <metadata>
    <name>rando Pinon 18/12/2017</name>
    <desc><![CDATA[File with points/tracks from Locus Map/3.27.1]]></desc>
  </metadata>
  <trk>
    <name><![CDATA[2017-12-18 13:51:07]]></name>
    <trkseg>
      <trkpt lat="49.49238" lon="3.44908">
        <ele>79.66</ele>
        <time>2017-12-18T12:51:08.000Z</time>
      </trkpt>
      <trkpt lat="49.49237" lon="3.44907">
        <ele>79.67</ele>
        <time>2017-12-18T12:51:39.000Z</time>
      </trkpt>
      <trkpt lat="49.49236" lon="3.44906">
        <ele>79.72</ele>
        <time>2017-12-18T12:51:49.000Z</time>
      </trkpt>
      <trkpt lat="49.49236" lon="3.44904">
        <ele>79.91</ele>
        <time>2017-12-18T12:52:06.000Z</time>
      </trkpt>
      <trkpt lat="49.49235" lon="3.44905">
        <ele>80.32</ele>
        <time>2017-12-18T12:52:26.000Z</time>
      </trkpt>
      <trkpt lat="49.49234" lon="3.44907">
        <ele>80.32</ele>
        <time>2017-12-18T12:52:36.000Z</time>
      </trkpt>
      <trkpt lat="49.49235" lon="3.44907">
        <ele>79.58</ele>
        <time>2017-12-18T12:53:43.000Z</time>
      </trkpt>
      <trkpt lat="49.49233" lon="3.44907">
        <ele>79.38</ele>
        <time>2017-12-18T12:53:53.000Z</time>
      </trkpt>
      <trkpt lat="49.49234" lon="3.44908">
        <ele>79.24</ele>
        <time>2017-12-18T12:54:30.000Z</time>
      </trkpt>
      <trkpt lat="49.49234" lon="3.44909">
        <ele>79.17</ele>
        <time>2017-12-18T12:54:40.000Z</time>
      </trkpt>
      <trkpt lat="49.49235" lon="3.44908">
        <ele>79.16</ele>
        <time>2017-12-18T12:55:08.000Z</time>
      </trkpt>
      <trkpt lat="49.49236" lon="3.44906">
        <ele>79.07</ele>
        <time>2017-12-18T12:55:18.000Z</time>
      </trkpt>
      <trkpt lat="49.4923" lon="3.44906">
        <ele>78.69</ele>
        <time>2017-12-18T12:55:28.000Z</time>
      </trkpt>
      <trkpt lat="49.49228" lon="3.44905">
        <ele>78.7</ele>
        <time>2017-12-18T12:55:38.000Z</time>
      </trkpt>
      <trkpt lat="49.49229" lon="3.44902">
        <ele>78.68</ele>
        <time>2017-12-18T12:55:48.000Z</time>
      </trkpt>
      <trkpt lat="49.49232" lon="3.44906">
        <ele>78.62</ele>
        <time>2017-12-18T12:55:58.000Z</time>
      </trkpt>
      <trkpt lat="49.49234" lon="3.4491">
        <ele>78.53</ele>
        <time>2017-12-18T12:56:08.000Z</time>
      </trkpt>
      <trkpt lat="49.4923" lon="3.44908">
        <ele>78.44</ele>
        <time>2017-12-18T12:56:18.000Z</time>
      </trkpt>
      <trkpt lat="49.49229" lon="3.44904">
        <ele>78.51</ele>
        <time>2017-12-18T12:56:28.000Z</time>
      </trkpt>
      <trkpt lat="49.49228" lon="3.44905">
        <ele>78.48</ele>
        <time>2017-12-18T12:56:46.999Z</time>
      </trkpt>
      <trkpt lat="49.49228" lon="3.44906">
        <ele>78.09</ele>
        <time>2017-12-18T12:56:57.999Z</time>
      </trkpt>
      <trkpt lat="49.49228" lon="3.44907">
        <ele>77.96</ele>
        <time>2017-12-18T12:57:12.999Z</time>
      </trkpt>
      <trkpt lat="49.49229" lon="3.44909">
        <ele>77.96</ele>
        <time>2017-12-18T12:57:22.999Z</time>
      </trkpt>
      <trkpt lat="49.49229" lon="3.4492">
        <ele>78.4</ele>
        <time>2017-12-18T12:57:32.999Z</time>
      </trkpt>
      <trkpt lat="49.49229" lon="3.44933">
        <ele>79.79</ele>
        <time>2017-12-18T12:57:42.999Z</time>
      </trkpt>
      <trkpt lat="49.49229" lon="3.44941">
        <ele>81.03</ele>
        <time>2017-12-18T12:57:52.999Z</time>
      </trkpt>
      <trkpt lat="49.49229" lon="3.44946">
        <ele>82.11</ele>
        <time>2017-12-18T12:58:02.999Z</time>
      </trkpt>
      <trkpt lat="49.49227" lon="3.44961">
        <ele>83.88</ele>
        <time>2017-12-18T12:58:12.999Z</time>
      </trkpt>
      <trkpt lat="49.49228" lon="3.44962">
        <ele>84.49</ele>
        <time>2017-12-18T12:58:26.999Z</time>
      </trkpt>
      <trkpt lat="49.49226" lon="3.44974">
        <ele>85.7</ele>
        <time>2017-12-18T12:58:36.999Z</time>
      </trkpt>
      <trkpt lat="49.49225" lon="3.44974">
        <ele>85.83</ele>
        <time>2017-12-18T12:58:49.999Z</time>
      </trkpt>
      <trkpt lat="49.49224" lon="3.44973">
        <ele>85.71</ele>
        <time>2017-12-18T12:58:59.999Z</time>
      </trkpt>
      <trkpt lat="49.49223" lon="3.44972">
        <ele>85.5</ele>
        <time>2017-12-18T12:59:09.999Z</time>
      </trkpt>
      <trkpt lat="49.49223" lon="3.44971">
        <ele>85.43</ele>
        <time>2017-12-18T12:59:20.999Z</time>
      </trkpt>
      <trkpt lat="49.49223" lon="3.44969">
        <ele>85.55</ele>
        <time>2017-12-18T12:59:30.999Z</time>
      </trkpt>
      <trkpt lat="49.49224" lon="3.44968">
        <ele>85.54</ele>
        <time>2017-12-18T12:59:46.999Z</time>
      </trkpt>
      <trkpt lat="49.49224" lon="3.44969">
        <ele>85.46</ele>
        <time>2017-12-18T12:59:59.999Z</time>
      </trkpt>
      <trkpt lat="49.49222" lon="3.44969">
        <ele>85.22</ele>
        <time>2017-12-18T13:00:09.999Z</time>
      </trkpt>
      <trkpt lat="49.49222" lon="3.44968">
        <ele>84.65</ele>
        <time>2017-12-18T13:00:33.999Z</time>
      </trkpt>
      <trkpt lat="49.49221" lon="3.44968">
        <ele>84.48</ele>
        <time>2017-12-18T13:00:43.999Z</time>
      </trkpt>
      <trkpt lat="49.4922" lon="3.44967">
        <ele>84.34</ele>
        <time>2017-12-18T13:00:53.999Z</time>
      </trkpt>
      <trkpt lat="49.49221" lon="3.44968">
        <ele>84.1</ele>
        <time>2017-12-18T13:01:34.999Z</time>
      </trkpt>
      <trkpt lat="49.4922" lon="3.44969">
        <ele>84.02</ele>
        <time>2017-12-18T13:01:44.999Z</time>
      </trkpt>
      <trkpt lat="49.49221" lon="3.44968">
        <ele>83.82</ele>
        <time>2017-12-18T13:01:59.999Z</time>
      </trkpt>
      <trkpt lat="49.49221" lon="3.44966">
        <ele>83.43</ele>
        <time>2017-12-18T13:02:19.999Z</time>
      </trkpt>
      <trkpt lat="49.4922" lon="3.44966">
        <ele>83.36</ele>
        <time>2017-12-18T13:02:36.999Z</time>
      </trkpt>
      <trkpt lat="49.4922" lon="3.44969">
        <ele>83.23</ele>
        <time>2017-12-18T13:02:46.999Z</time>
      </trkpt>
      <trkpt lat="49.49219" lon="3.44968">
        <ele>83.04</ele>
        <time>2017-12-18T13:02:57.999Z</time>
      </trkpt>
      <trkpt lat="49.49219" lon="3.44967">
        <ele>82.88</ele>
        <time>2017-12-18T13:03:10.999Z</time>
      </trkpt>
      <trkpt lat="49.4922" lon="3.44968">
        <ele>82.8</ele>
        <time>2017-12-18T13:03:20.999Z</time>
      </trkpt>
      <trkpt lat="49.4922" lon="3.44969">
        <ele>82.79</ele>
        <time>2017-12-18T13:03:33.999Z</time>
      </trkpt>
      <trkpt lat="49.49219" lon="3.44968">
        <ele>82.63</ele>
        <time>2017-12-18T13:04:00.999Z</time>
      </trkpt>
      <trkpt lat="49.49218" lon="3.44967">
        <ele>82.5</ele>
        <time>2017-12-18T13:04:21.999Z</time>
      </trkpt>
      <trkpt lat="49.49219" lon="3.44966">
        <ele>82.05</ele>
        <time>2017-12-18T13:04:59.999Z</time>
      </trkpt>
      <trkpt lat="49.4922" lon="3.44967">
        <ele>81.99</ele>
        <time>2017-12-18T13:05:19.999Z</time>
      </trkpt>
      <trkpt lat="49.49222" lon="3.44968">
        <ele>82.01</ele>
        <time>2017-12-18T13:05:29.999Z</time>
      </trkpt>
      <trkpt lat="49.49223" lon="3.44969">
        <ele>82.11</ele>
        <time>2017-12-18T13:05:39.999Z</time>
      </trkpt>
      <trkpt lat="49.49225" lon="3.4497">
        <ele>82.19</ele>
        <time>2017-12-18T13:05:49.999Z</time>
      </trkpt>
      <trkpt lat="49.49226" lon="3.44971">
        <ele>82.02</ele>
        <time>2017-12-18T13:06:17.999Z</time>
      </trkpt>
      <trkpt lat="49.49224" lon="3.44969">
        <ele>82.01</ele>
        <time>2017-12-18T13:06:27.999Z</time>
      </trkpt>
      <trkpt lat="49.49223" lon="3.44968">
        <ele>82.18</ele>
        <time>2017-12-18T13:06:40.999Z</time>
      </trkpt>
      <trkpt lat="49.49223" lon="3.44968">
        <ele>82.67</ele>
        <time>2017-12-18T13:06:57.999Z</time>
      </trkpt>
      <trkpt lat="49.49222" lon="3.44966">
        <ele>82.88</ele>
        <time>2017-12-18T13:07:07.999Z</time>
      </trkpt>
      <trkpt lat="49.49222" lon="3.44964">
        <ele>82.99</ele>
        <time>2017-12-18T13:07:17.999Z</time>
      </trkpt>
      <trkpt lat="49.49221" lon="3.44964">
        <ele>83.05</ele>
        <time>2017-12-18T13:08:00.999Z</time>
      </trkpt>
      <trkpt lat="49.49221" lon="3.44965">
        <ele>82.98</ele>
        <time>2017-12-18T13:08:12.999Z</time>
      </trkpt>
      <trkpt lat="49.49221" lon="3.44967">
        <ele>82.83</ele>
        <time>2017-12-18T13:08:31.999Z</time>
      </trkpt>
      <trkpt lat="49.49222" lon="3.44966">
        <ele>82.71</ele>
        <time>2017-12-18T13:08:41.999Z</time>
      </trkpt>
      <trkpt lat="49.49223" lon="3.44967">
        <ele>82.03</ele>
        <time>2017-12-18T13:08:51.999Z</time>
      </trkpt>
      <trkpt lat="49.49222" lon="3.44968">
        <ele>81.97</ele>
        <time>2017-12-18T13:09:01.999Z</time>
      </trkpt>
      <trkpt lat="49.49223" lon="3.44967">
        <ele>82.18</ele>
        <time>2017-12-18T13:09:45.999Z</time>
      </trkpt>
      <trkpt lat="49.49222" lon="3.44966">
        <ele>82.26</ele>
        <time>2017-12-18T13:10:02.999Z</time>
      </trkpt>
      <trkpt lat="49.49222" lon="3.44967">
        <ele>82.2</ele>
        <time>2017-12-18T13:10:17.999Z</time>
      </trkpt>
      <trkpt lat="49.49221" lon="3.44968">
        <ele>82.12</ele>
        <time>2017-12-18T13:10:27.999Z</time>
      </trkpt>
      <trkpt lat="49.49221" lon="3.4497">
        <ele>82.02</ele>
        <time>2017-12-18T13:10:48.999Z</time>
      </trkpt>
      <trkpt lat="49.49217" lon="3.44981">
        <ele>81.9</ele>
        <time>2017-12-18T13:10:58.999Z</time>
      </trkpt>
      <trkpt lat="49.49214" lon="3.45004">
        <ele>81.35</ele>
        <time>2017-12-18T13:11:08.999Z</time>
      </trkpt>
      <trkpt lat="49.49212" lon="3.4502">
        <ele>80.71</ele>
        <time>2017-12-18T13:11:18.999Z</time>
      </trkpt>
      <trkpt lat="49.49209" lon="3.45039">
        <ele>80.08</ele>
        <time>2017-12-18T13:11:28.999Z</time>
      </trkpt>
      <trkpt lat="49.49203" lon="3.45058">
        <ele>79.18</ele>
        <time>2017-12-18T13:11:38.999Z</time>
      </trkpt>
      <trkpt lat="49.49199" lon="3.45077">
        <ele>78.04</ele>
        <time>2017-12-18T13:11:48.999Z</time>
      </trkpt>
      <trkpt lat="49.49197" lon="3.45097">
        <ele>76.92</ele>
        <time>2017-12-18T13:11:58.999Z</time>
      </trkpt>
      <trkpt lat="49.49192" lon="3.45111">
        <ele>75.5</ele>
        <time>2017-12-18T13:12:08.999Z</time>
      </trkpt>
      <trkpt lat="49.49182" lon="3.45124">
        <ele>73.85</ele>
        <time>2017-12-18T13:12:18.999Z</time>
      </trkpt>
      <trkpt lat="49.49172" lon="3.45135">
        <ele>72.78</ele>
        <time>2017-12-18T13:12:28.999Z</time>
      </trkpt>
      <trkpt lat="49.49161" lon="3.45151">
        <ele>71.8</ele>
        <time>2017-12-18T13:12:38.999Z</time>
      </trkpt>
      <trkpt lat="49.49153" lon="3.45162">
        <ele>70.96</ele>
        <time>2017-12-18T13:12:48.999Z</time>
      </trkpt>
      <trkpt lat="49.49144" lon="3.45171">
        <ele>70.85</ele>
        <time>2017-12-18T13:12:58.999Z</time>
      </trkpt>
      <trkpt lat="49.49134" lon="3.45184">
        <ele>70.66</ele>
        <time>2017-12-18T13:13:08.999Z</time>
      </trkpt>
      <trkpt lat="49.49124" lon="3.45194">
        <ele>70.99</ele>
        <time>2017-12-18T13:13:18.999Z</time>
      </trkpt>
      <trkpt lat="49.49112" lon="3.45208">
        <ele>71.58</ele>
        <time>2017-12-18T13:13:28.999Z</time>
      </trkpt>
      <trkpt lat="49.49104" lon="3.45219">
        <ele>72.16</ele>
        <time>2017-12-18T13:13:38.999Z</time>
      </trkpt>
      <trkpt lat="49.49097" lon="3.45228">
        <ele>72.48</ele>
        <time>2017-12-18T13:13:48.999Z</time>
      </trkpt>
      <trkpt lat="49.4909" lon="3.45232">
        <ele>72.66</ele>
        <time>2017-12-18T13:13:58.999Z</time>
      </trkpt>
      <trkpt lat="49.49084" lon="3.4524">
        <ele>73.98</ele>
        <time>2017-12-18T13:14:08.999Z</time>
      </trkpt>
      <trkpt lat="49.49077" lon="3.4525">
        <ele>74.72</ele>
        <time>2017-12-18T13:14:18.999Z</time>
      </trkpt>
      <trkpt lat="49.49069" lon="3.45264">
        <ele>74.31</ele>
        <time>2017-12-18T13:14:28.999Z</time>
      </trkpt>
      <trkpt lat="49.4906" lon="3.45278">
        <ele>73.49</ele>
        <time>2017-12-18T13:14:38.999Z</time>
      </trkpt>
      <trkpt lat="49.49058" lon="3.45295">
        <ele>73.62</ele>
        <time>2017-12-18T13:14:48.999Z</time>
      </trkpt>
      <trkpt lat="49.49054" lon="3.45315">
        <ele>74.19</ele>
        <time>2017-12-18T13:14:58.999Z</time>
      </trkpt>
      <trkpt lat="49.49049" lon="3.45331">
        <ele>74.28</ele>
        <time>2017-12-18T13:15:08.999Z</time>
      </trkpt>
      <trkpt lat="49.49041" lon="3.45345">
        <ele>73.88</ele>
        <time>2017-12-18T13:15:18.999Z</time>
      </trkpt>
      <trkpt lat="49.49032" lon="3.45359">
        <ele>73.22</ele>
        <time>2017-12-18T13:15:28.999Z</time>
      </trkpt>
      <trkpt lat="49.49016" lon="3.45369">
        <ele>72.85</ele>
        <time>2017-12-18T13:15:38.999Z</time>
      </trkpt>
      <trkpt lat="49.49002" lon="3.45376">
        <ele>72.21</ele>
        <time>2017-12-18T13:15:48.999Z</time>
      </trkpt>
      <trkpt lat="49.48993" lon="3.45379">
        <ele>72.08</ele>
        <time>2017-12-18T13:15:58.999Z</time>
      </trkpt>
      <trkpt lat="49.48981" lon="3.45381">
        <ele>72.19</ele>
        <time>2017-12-18T13:16:08.999Z</time>
      </trkpt>
      <trkpt lat="49.48972" lon="3.45378">
        <ele>73.13</ele>
        <time>2017-12-18T13:16:18.999Z</time>
      </trkpt>
      <trkpt lat="49.4896" lon="3.45379">
        <ele>74.23</ele>
        <time>2017-12-18T13:16:28.999Z</time>
      </trkpt>
      <trkpt lat="49.48951" lon="3.45384">
        <ele>74.75</ele>
        <time>2017-12-18T13:16:38.999Z</time>
      </trkpt>
      <trkpt lat="49.48945" lon="3.45394">
        <ele>73.59</ele>
        <time>2017-12-18T13:16:48.999Z</time>
      </trkpt>
      <trkpt lat="49.48932" lon="3.45407">
        <ele>73.05</ele>
        <time>2017-12-18T13:16:58.999Z</time>
      </trkpt>
      <trkpt lat="49.48925" lon="3.45413">
        <ele>72.97</ele>
        <time>2017-12-18T13:17:08.999Z</time>
      </trkpt>
      <trkpt lat="49.48918" lon="3.4542">
        <ele>73.91</ele>
        <time>2017-12-18T13:17:18.999Z</time>
      </trkpt>
      <trkpt lat="49.48907" lon="3.45431">
        <ele>75.53</ele>
        <time>2017-12-18T13:17:28.999Z</time>
      </trkpt>
      <trkpt lat="49.48898" lon="3.45443">
        <ele>77.4</ele>
        <time>2017-12-18T13:17:38.999Z</time>
      </trkpt>
      <trkpt lat="49.48889" lon="3.45447">
        <ele>78.57</ele>
        <time>2017-12-18T13:17:48.999Z</time>
      </trkpt>
      <trkpt lat="49.48874" lon="3.45455">
        <ele>78.62</ele>
        <time>2017-12-18T13:17:58.999Z</time>
      </trkpt>
      <trkpt lat="49.48864" lon="3.45465">
        <ele>77.55</ele>
        <time>2017-12-18T13:18:08.999Z</time>
      </trkpt>
      <trkpt lat="49.48856" lon="3.45469">
        <ele>77.45</ele>
        <time>2017-12-18T13:18:18.999Z</time>
      </trkpt>
      <trkpt lat="49.48845" lon="3.45481">
        <ele>77</ele>
        <time>2017-12-18T13:18:28.999Z</time>
      </trkpt>
      <trkpt lat="49.48833" lon="3.45493">
        <ele>76.72</ele>
        <time>2017-12-18T13:18:38.999Z</time>
      </trkpt>
      <trkpt lat="49.48821" lon="3.45507">
        <ele>76.2</ele>
        <time>2017-12-18T13:18:48.999Z</time>
      </trkpt>
      <trkpt lat="49.48811" lon="3.45515">
        <ele>74.74</ele>
        <time>2017-12-18T13:18:58.999Z</time>
      </trkpt>
      <trkpt lat="49.48805" lon="3.45525">
        <ele>73.09</ele>
        <time>2017-12-18T13:19:08.999Z</time>
      </trkpt>
      <trkpt lat="49.48797" lon="3.45531">
        <ele>72.35</ele>
        <time>2017-12-18T13:19:18.999Z</time>
      </trkpt>
      <trkpt lat="49.48795" lon="3.45537">
        <ele>72.48</ele>
        <time>2017-12-18T13:19:28.999Z</time>
      </trkpt>
      <trkpt lat="49.48796" lon="3.45541">
        <ele>72.64</ele>
        <time>2017-12-18T13:19:38.999Z</time>
      </trkpt>
      <trkpt lat="49.48798" lon="3.45543">
        <ele>72.9</ele>
        <time>2017-12-18T13:19:48.999Z</time>
      </trkpt>
      <trkpt lat="49.48798" lon="3.45545">
        <ele>73.33</ele>
        <time>2017-12-18T13:19:58.000Z</time>
      </trkpt>
      <trkpt lat="49.48797" lon="3.45545">
        <ele>73.9</ele>
        <time>2017-12-18T13:20:11.000Z</time>
      </trkpt>
      <trkpt lat="49.48793" lon="3.45547">
        <ele>74.47</ele>
        <time>2017-12-18T13:20:21.000Z</time>
      </trkpt>
      <trkpt lat="49.4878" lon="3.45547">
        <ele>77.82</ele>
        <time>2017-12-18T13:20:31.000Z</time>
      </trkpt>
      <trkpt lat="49.48775" lon="3.45547">
        <ele>78.75</ele>
        <time>2017-12-18T13:20:41.000Z</time>
      </trkpt>
      <trkpt lat="49.48761" lon="3.45555">
        <ele>78.89</ele>
        <time>2017-12-18T13:20:51.000Z</time>
      </trkpt>
      <trkpt lat="49.48763" lon="3.45557">
        <ele>78.68</ele>
        <time>2017-12-18T13:21:01.000Z</time>
      </trkpt>
      <trkpt lat="49.48764" lon="3.45556">
        <ele>78.78</ele>
        <time>2017-12-18T13:21:11.000Z</time>
      </trkpt>
      <trkpt lat="49.48762" lon="3.45556">
        <ele>78.95</ele>
        <time>2017-12-18T13:21:21.000Z</time>
      </trkpt>
      <trkpt lat="49.48753" lon="3.45562">
        <ele>79.53</ele>
        <time>2017-12-18T13:21:31.000Z</time>
      </trkpt>
      <trkpt lat="49.48748" lon="3.45571">
        <ele>79.88</ele>
        <time>2017-12-18T13:21:41.000Z</time>
      </trkpt>
      <trkpt lat="49.48745" lon="3.45572">
        <ele>79.84</ele>
        <time>2017-12-18T13:21:51.000Z</time>
      </trkpt>
      <trkpt lat="49.48741" lon="3.45571">
        <ele>79.7</ele>
        <time>2017-12-18T13:22:01.000Z</time>
      </trkpt>
      <trkpt lat="49.48727" lon="3.45569">
        <ele>78.77</ele>
        <time>2017-12-18T13:22:11.000Z</time>
      </trkpt>
      <trkpt lat="49.48716" lon="3.45576">
        <ele>77.36</ele>
        <time>2017-12-18T13:22:21.000Z</time>
      </trkpt>
      <trkpt lat="49.48705" lon="3.45591">
        <ele>76.27</ele>
        <time>2017-12-18T13:22:31.000Z</time>
      </trkpt>
      <trkpt lat="49.48696" lon="3.45596">
        <ele>75.53</ele>
        <time>2017-12-18T13:22:41.000Z</time>
      </trkpt>
      <trkpt lat="49.48688" lon="3.45594">
        <ele>74.96</ele>
        <time>2017-12-18T13:22:51.000Z</time>
      </trkpt>
      <trkpt lat="49.48682" lon="3.456">
        <ele>73.9</ele>
        <time>2017-12-18T13:23:01.000Z</time>
      </trkpt>
      <trkpt lat="49.48675" lon="3.45608">
        <ele>71.72</ele>
        <time>2017-12-18T13:23:11.000Z</time>
      </trkpt>
      <trkpt lat="49.48665" lon="3.45614">
        <ele>70.23</ele>
        <time>2017-12-18T13:23:21.000Z</time>
      </trkpt>
      <trkpt lat="49.48653" lon="3.45615">
        <ele>69.6</ele>
        <time>2017-12-18T13:23:31.000Z</time>
      </trkpt>
      <trkpt lat="49.48643" lon="3.4562">
        <ele>67.98</ele>
        <time>2017-12-18T13:23:41.000Z</time>
      </trkpt>
      <trkpt lat="49.48633" lon="3.45623">
        <ele>66.78</ele>
        <time>2017-12-18T13:23:51.000Z</time>
      </trkpt>
      <trkpt lat="49.48618" lon="3.45631">
        <ele>66.21</ele>
        <time>2017-12-18T13:24:01.000Z</time>
      </trkpt>
      <trkpt lat="49.48607" lon="3.45638">
        <ele>66.77</ele>
        <time>2017-12-18T13:24:11.000Z</time>
      </trkpt>
      <trkpt lat="49.48603" lon="3.45646">
        <ele>67.5</ele>
        <time>2017-12-18T13:24:21.000Z</time>
      </trkpt>
      <trkpt lat="49.48597" lon="3.45655">
        <ele>69.48</ele>
        <time>2017-12-18T13:24:31.000Z</time>
      </trkpt>
      <trkpt lat="49.48588" lon="3.45667">
        <ele>71.88</ele>
        <time>2017-12-18T13:24:41.000Z</time>
      </trkpt>
      <trkpt lat="49.48575" lon="3.4568">
        <ele>73.03</ele>
        <time>2017-12-18T13:24:51.000Z</time>
      </trkpt>
      <trkpt lat="49.48566" lon="3.45691">
        <ele>73.18</ele>
        <time>2017-12-18T13:25:01.000Z</time>
      </trkpt>
      <trkpt lat="49.48564" lon="3.45698">
        <ele>73.28</ele>
        <time>2017-12-18T13:25:11.000Z</time>
      </trkpt>
      <trkpt lat="49.48554" lon="3.45708">
        <ele>73.24</ele>
        <time>2017-12-18T13:25:21.000Z</time>
      </trkpt>
      <trkpt lat="49.4855" lon="3.45717">
        <ele>73.66</ele>
        <time>2017-12-18T13:25:31.000Z</time>
      </trkpt>
      <trkpt lat="49.48552" lon="3.45715">
        <ele>73.81</ele>
        <time>2017-12-18T13:25:41.000Z</time>
      </trkpt>
      <trkpt lat="49.48552" lon="3.45716">
        <ele>74.1</ele>
        <time>2017-12-18T13:25:53.000Z</time>
      </trkpt>
      <trkpt lat="49.48553" lon="3.45717">
        <ele>74.37</ele>
        <time>2017-12-18T13:26:03.000Z</time>
      </trkpt>
      <trkpt lat="49.48552" lon="3.45714">
        <ele>74.51</ele>
        <time>2017-12-18T13:26:13.000Z</time>
      </trkpt>
      <trkpt lat="49.48544" lon="3.45719">
        <ele>75.07</ele>
        <time>2017-12-18T13:26:23.000Z</time>
      </trkpt>
      <trkpt lat="49.48536" lon="3.45732">
        <ele>76.08</ele>
        <time>2017-12-18T13:26:33.000Z</time>
      </trkpt>
      <trkpt lat="49.48528" lon="3.45741">
        <ele>77.32</ele>
        <time>2017-12-18T13:26:43.000Z</time>
      </trkpt>
      <trkpt lat="49.48518" lon="3.45744">
        <ele>78</ele>
        <time>2017-12-18T13:26:53.000Z</time>
      </trkpt>
      <trkpt lat="49.48507" lon="3.45755">
        <ele>79.1</ele>
        <time>2017-12-18T13:27:03.000Z</time>
      </trkpt>
      <trkpt lat="49.48495" lon="3.45764">
        <ele>80.86</ele>
        <time>2017-12-18T13:27:13.000Z</time>
      </trkpt>
      <trkpt lat="49.48483" lon="3.45765">
        <ele>81.73</ele>
        <time>2017-12-18T13:27:23.000Z</time>
      </trkpt>
      <trkpt lat="49.48468" lon="3.45762">
        <ele>83.05</ele>
        <time>2017-12-18T13:27:33.000Z</time>
      </trkpt>
      <trkpt lat="49.48457" lon="3.4576">
        <ele>85.04</ele>
        <time>2017-12-18T13:27:43.000Z</time>
      </trkpt>
      <trkpt lat="49.48448" lon="3.45757">
        <ele>86</ele>
        <time>2017-12-18T13:27:53.000Z</time>
      </trkpt>
      <trkpt lat="49.48438" lon="3.45756">
        <ele>86.63</ele>
        <time>2017-12-18T13:28:03.000Z</time>
      </trkpt>
      <trkpt lat="49.4843" lon="3.4575">
        <ele>87.17</ele>
        <time>2017-12-18T13:28:13.000Z</time>
      </trkpt>
      <trkpt lat="49.48419" lon="3.4575">
        <ele>87.79</ele>
        <time>2017-12-18T13:28:23.000Z</time>
      </trkpt>
      <trkpt lat="49.48405" lon="3.45758">
        <ele>89.11</ele>
        <time>2017-12-18T13:28:33.000Z</time>
      </trkpt>
      <trkpt lat="49.48396" lon="3.45768">
        <ele>90.5</ele>
        <time>2017-12-18T13:28:43.000Z</time>
      </trkpt>
      <trkpt lat="49.48387" lon="3.45778">
        <ele>91.44</ele>
        <time>2017-12-18T13:28:53.000Z</time>
      </trkpt>
      <trkpt lat="49.48374" lon="3.45787">
        <ele>92.06</ele>
        <time>2017-12-18T13:29:03.000Z</time>
      </trkpt>
      <trkpt lat="49.48364" lon="3.45791">
        <ele>92.44</ele>
        <time>2017-12-18T13:29:13.000Z</time>
      </trkpt>
      <trkpt lat="49.48354" lon="3.45799">
        <ele>92.92</ele>
        <time>2017-12-18T13:29:23.000Z</time>
      </trkpt>
      <trkpt lat="49.4835" lon="3.45802">
        <ele>93.5</ele>
        <time>2017-12-18T13:29:33.000Z</time>
      </trkpt>
      <trkpt lat="49.48336" lon="3.458">
        <ele>92.76</ele>
        <time>2017-12-18T13:29:43.000Z</time>
      </trkpt>
      <trkpt lat="49.48325" lon="3.45799">
        <ele>91.77</ele>
        <time>2017-12-18T13:29:53.000Z</time>
      </trkpt>
      <trkpt lat="49.48314" lon="3.45797">
        <ele>90.92</ele>
        <time>2017-12-18T13:30:03.000Z</time>
      </trkpt>
      <trkpt lat="49.48304" lon="3.45794">
        <ele>90.64</ele>
        <time>2017-12-18T13:30:13.000Z</time>
      </trkpt>
      <trkpt lat="49.48293" lon="3.45795">
        <ele>90.43</ele>
        <time>2017-12-18T13:30:23.000Z</time>
      </trkpt>
      <trkpt lat="49.48281" lon="3.45795">
        <ele>90.15</ele>
        <time>2017-12-18T13:30:33.000Z</time>
      </trkpt>
      <trkpt lat="49.48269" lon="3.45796">
        <ele>90.37</ele>
        <time>2017-12-18T13:30:43.000Z</time>
      </trkpt>
      <trkpt lat="49.48259" lon="3.45798">
        <ele>90.44</ele>
        <time>2017-12-18T13:30:53.000Z</time>
      </trkpt>
      <trkpt lat="49.48248" lon="3.45801">
        <ele>90.98</ele>
        <time>2017-12-18T13:31:03.000Z</time>
      </trkpt>
      <trkpt lat="49.48239" lon="3.45797">
        <ele>91.53</ele>
        <time>2017-12-18T13:31:13.000Z</time>
      </trkpt>
      <trkpt lat="49.48238" lon="3.45795">
        <ele>92.28</ele>
        <time>2017-12-18T13:31:40.000Z</time>
      </trkpt>
      <trkpt lat="49.48242" lon="3.45796">
        <ele>92.21</ele>
        <time>2017-12-18T13:31:50.000Z</time>
      </trkpt>
      <trkpt lat="49.48242" lon="3.4578">
        <ele>92.25</ele>
        <time>2017-12-18T13:32:00.000Z</time>
      </trkpt>
      <trkpt lat="49.48238" lon="3.45778">
        <ele>92.32</ele>
        <time>2017-12-18T13:32:10.000Z</time>
      </trkpt>
      <trkpt lat="49.48237" lon="3.45778">
        <ele>92.56</ele>
        <time>2017-12-18T13:32:30.000Z</time>
      </trkpt>
      <trkpt lat="49.48236" lon="3.4578">
        <ele>92.78</ele>
        <time>2017-12-18T13:32:40.000Z</time>
      </trkpt>
      <trkpt lat="49.48234" lon="3.45783">
        <ele>93.02</ele>
        <time>2017-12-18T13:32:50.000Z</time>
      </trkpt>
      <trkpt lat="49.48233" lon="3.45784">
        <ele>93.63</ele>
        <time>2017-12-18T13:33:00.000Z</time>
      </trkpt>
      <trkpt lat="49.48232" lon="3.45784">
        <ele>93.93</ele>
        <time>2017-12-18T13:33:12.000Z</time>
      </trkpt>
      <trkpt lat="49.48231" lon="3.45785">
        <ele>94.16</ele>
        <time>2017-12-18T13:33:23.000Z</time>
      </trkpt>
      <trkpt lat="49.48228" lon="3.458">
        <ele>95.16</ele>
        <time>2017-12-18T13:33:33.000Z</time>
      </trkpt>
      <trkpt lat="49.48245" lon="3.45769">
        <ele>96.14</ele>
        <time>2017-12-18T13:33:43.000Z</time>
      </trkpt>
      <trkpt lat="49.48241" lon="3.45749">
        <ele>95.98</ele>
        <time>2017-12-18T13:33:53.000Z</time>
      </trkpt>
      <trkpt lat="49.48236" lon="3.45738">
        <ele>95.98</ele>
        <time>2017-12-18T13:34:03.000Z</time>
      </trkpt>
      <trkpt lat="49.48232" lon="3.45723">
        <ele>96.56</ele>
        <time>2017-12-18T13:34:13.000Z</time>
      </trkpt>
      <trkpt lat="49.4823" lon="3.45716">
        <ele>97.1</ele>
        <time>2017-12-18T13:34:23.000Z</time>
      </trkpt>
      <trkpt lat="49.48226" lon="3.45699">
        <ele>97.33</ele>
        <time>2017-12-18T13:34:33.000Z</time>
      </trkpt>
      <trkpt lat="49.4822" lon="3.45685">
        <ele>97.58</ele>
        <time>2017-12-18T13:34:43.000Z</time>
      </trkpt>
      <trkpt lat="49.48215" lon="3.4567">
        <ele>97.18</ele>
        <time>2017-12-18T13:34:53.000Z</time>
      </trkpt>
      <trkpt lat="49.48208" lon="3.45658">
        <ele>96.78</ele>
        <time>2017-12-18T13:35:03.000Z</time>
      </trkpt>
      <trkpt lat="49.48199" lon="3.45649">
        <ele>97.07</ele>
        <time>2017-12-18T13:35:13.000Z</time>
      </trkpt>
      <trkpt lat="49.48189" lon="3.45639">
        <ele>97.98</ele>
        <time>2017-12-18T13:35:23.000Z</time>
      </trkpt>
      <trkpt lat="49.48178" lon="3.45636">
        <ele>99.19</ele>
        <time>2017-12-18T13:35:33.000Z</time>
      </trkpt>
      <trkpt lat="49.48168" lon="3.45636">
        <ele>100.44</ele>
        <time>2017-12-18T13:35:43.000Z</time>
      </trkpt>
      <trkpt lat="49.48159" lon="3.45636">
        <ele>101.1</ele>
        <time>2017-12-18T13:35:53.000Z</time>
      </trkpt>
      <trkpt lat="49.48148" lon="3.45635">
        <ele>101.57</ele>
        <time>2017-12-18T13:36:03.000Z</time>
      </trkpt>
      <trkpt lat="49.48138" lon="3.45633">
        <ele>102.23</ele>
        <time>2017-12-18T13:36:13.000Z</time>
      </trkpt>
      <trkpt lat="49.48128" lon="3.45631">
        <ele>102.97</ele>
        <time>2017-12-18T13:36:23.000Z</time>
      </trkpt>
      <trkpt lat="49.4812" lon="3.45636">
        <ele>104.33</ele>
        <time>2017-12-18T13:36:33.000Z</time>
      </trkpt>
      <trkpt lat="49.48108" lon="3.45636">
        <ele>105.82</ele>
        <time>2017-12-18T13:36:43.000Z</time>
      </trkpt>
      <trkpt lat="49.48113" lon="3.45624">
        <ele>106.94</ele>
        <time>2017-12-18T13:36:53.000Z</time>
      </trkpt>
      <trkpt lat="49.48116" lon="3.4561">
        <ele>108</ele>
        <time>2017-12-18T13:37:03.000Z</time>
      </trkpt>
      <trkpt lat="49.48114" lon="3.45592">
        <ele>109.86</ele>
        <time>2017-12-18T13:37:13.000Z</time>
      </trkpt>
      <trkpt lat="49.48114" lon="3.45584">
        <ele>110.16</ele>
        <time>2017-12-18T13:37:23.000Z</time>
      </trkpt>
      <trkpt lat="49.4812" lon="3.45565">
        <ele>109.44</ele>
        <time>2017-12-18T13:37:33.000Z</time>
      </trkpt>
      <trkpt lat="49.48122" lon="3.45545">
        <ele>109.25</ele>
        <time>2017-12-18T13:37:43.000Z</time>
      </trkpt>
      <trkpt lat="49.48124" lon="3.45527">
        <ele>108.54</ele>
        <time>2017-12-18T13:37:53.000Z</time>
      </trkpt>
      <trkpt lat="49.48126" lon="3.4551">
        <ele>107.89</ele>
        <time>2017-12-18T13:38:03.000Z</time>
      </trkpt>
      <trkpt lat="49.48122" lon="3.45491">
        <ele>107.33</ele>
        <time>2017-12-18T13:38:13.000Z</time>
      </trkpt>
      <trkpt lat="49.48107" lon="3.45473">
        <ele>107.45</ele>
        <time>2017-12-18T13:38:23.000Z</time>
      </trkpt>
      <trkpt lat="49.48096" lon="3.45464">
        <ele>108.38</ele>
        <time>2017-12-18T13:38:33.000Z</time>
      </trkpt>
      <trkpt lat="49.48086" lon="3.45452">
        <ele>108.86</ele>
        <time>2017-12-18T13:38:43.000Z</time>
      </trkpt>
      <trkpt lat="49.48077" lon="3.4544">
        <ele>109.59</ele>
        <time>2017-12-18T13:38:53.000Z</time>
      </trkpt>
      <trkpt lat="49.48075" lon="3.45429">
        <ele>110.77</ele>
        <time>2017-12-18T13:39:03.000Z</time>
      </trkpt>
      <trkpt lat="49.48082" lon="3.45416">
        <ele>110.71</ele>
        <time>2017-12-18T13:39:13.000Z</time>
      </trkpt>
      <trkpt lat="49.48086" lon="3.45403">
        <ele>109.93</ele>
        <time>2017-12-18T13:39:23.000Z</time>
      </trkpt>
      <trkpt lat="49.48092" lon="3.45389">
        <ele>109.44</ele>
        <time>2017-12-18T13:39:33.000Z</time>
      </trkpt>
      <trkpt lat="49.48097" lon="3.45376">
        <ele>108.75</ele>
        <time>2017-12-18T13:39:43.000Z</time>
      </trkpt>
      <trkpt lat="49.48098" lon="3.45371">
        <ele>107.65</ele>
        <time>2017-12-18T13:39:53.000Z</time>
      </trkpt>
      <trkpt lat="49.48102" lon="3.45356">
        <ele>97.45</ele>
        <time>2017-12-18T13:40:03.000Z</time>
      </trkpt>
      <trkpt lat="49.48107" lon="3.45337">
        <ele>98.25</ele>
        <time>2017-12-18T13:40:13.000Z</time>
      </trkpt>
      <trkpt lat="49.48106" lon="3.45339">
        <ele>98.77</ele>
        <time>2017-12-18T13:40:23.000Z</time>
      </trkpt>
      <trkpt lat="49.48107" lon="3.45339">
        <ele>98.96</ele>
        <time>2017-12-18T13:40:33.000Z</time>
      </trkpt>
      <trkpt lat="49.48107" lon="3.45341">
        <ele>99.54</ele>
        <time>2017-12-18T13:40:56.000Z</time>
      </trkpt>
      <trkpt lat="49.48108" lon="3.45341">
        <ele>100.53</ele>
        <time>2017-12-18T13:41:20.000Z</time>
      </trkpt>
      <trkpt lat="49.48117" lon="3.45327">
        <ele>101.54</ele>
        <time>2017-12-18T13:41:30.000Z</time>
      </trkpt>
      <trkpt lat="49.48117" lon="3.45314">
        <ele>101.79</ele>
        <time>2017-12-18T13:41:40.000Z</time>
      </trkpt>
      <trkpt lat="49.481" lon="3.45298">
        <ele>102.4</ele>
        <time>2017-12-18T13:41:49.999Z</time>
      </trkpt>
      <trkpt lat="49.48086" lon="3.45284">
        <ele>104.36</ele>
        <time>2017-12-18T13:41:59.999Z</time>
      </trkpt>
      <trkpt lat="49.48075" lon="3.45276">
        <ele>106.08</ele>
        <time>2017-12-18T13:42:09.999Z</time>
      </trkpt>
      <trkpt lat="49.48062" lon="3.45262">
        <ele>107.61</ele>
        <time>2017-12-18T13:42:19.999Z</time>
      </trkpt>
      <trkpt lat="49.48052" lon="3.45247">
        <ele>109.1</ele>
        <time>2017-12-18T13:42:29.999Z</time>
      </trkpt>
      <trkpt lat="49.48046" lon="3.45226">
        <ele>111.45</ele>
        <time>2017-12-18T13:42:39.999Z</time>
      </trkpt>
      <trkpt lat="49.4804" lon="3.45209">
        <ele>113.74</ele>
        <time>2017-12-18T13:42:49.999Z</time>
      </trkpt>
      <trkpt lat="49.48035" lon="3.4519">
        <ele>115.96</ele>
        <time>2017-12-18T13:42:59.999Z</time>
      </trkpt>
      <trkpt lat="49.48024" lon="3.45209">
        <ele>117.09</ele>
        <time>2017-12-18T13:43:09.999Z</time>
      </trkpt>
      <trkpt lat="49.48017" lon="3.45229">
        <ele>116.52</ele>
        <time>2017-12-18T13:43:19.999Z</time>
      </trkpt>
      <trkpt lat="49.48009" lon="3.45243">
        <ele>115.62</ele>
        <time>2017-12-18T13:43:29.999Z</time>
      </trkpt>
      <trkpt lat="49.48003" lon="3.45256">
        <ele>115.64</ele>
        <time>2017-12-18T13:43:39.999Z</time>
      </trkpt>
      <trkpt lat="49.47996" lon="3.45263">
        <ele>116.5</ele>
        <time>2017-12-18T13:43:49.999Z</time>
      </trkpt>
      <trkpt lat="49.47987" lon="3.45257">
        <ele>117.64</ele>
        <time>2017-12-18T13:43:59.999Z</time>
      </trkpt>
      <trkpt lat="49.47976" lon="3.45249">
        <ele>118.71</ele>
        <time>2017-12-18T13:44:09.999Z</time>
      </trkpt>
      <trkpt lat="49.47967" lon="3.45239">
        <ele>119.71</ele>
        <time>2017-12-18T13:44:19.999Z</time>
      </trkpt>
      <trkpt lat="49.47961" lon="3.45223">
        <ele>119.95</ele>
        <time>2017-12-18T13:44:29.999Z</time>
      </trkpt>
      <trkpt lat="49.47959" lon="3.45218">
        <ele>119.37</ele>
        <time>2017-12-18T13:44:39.999Z</time>
      </trkpt>
      <trkpt lat="49.47958" lon="3.45218">
        <ele>119.46</ele>
        <time>2017-12-18T13:44:50.999Z</time>
      </trkpt>
      <trkpt lat="49.47957" lon="3.45217">
        <ele>119.62</ele>
        <time>2017-12-18T13:45:06.999Z</time>
      </trkpt>
      <trkpt lat="49.47956" lon="3.45215">
        <ele>119.28</ele>
        <time>2017-12-18T13:45:24.999Z</time>
      </trkpt>
      <trkpt lat="49.47956" lon="3.452">
        <ele>118.51</ele>
        <time>2017-12-18T13:45:34.999Z</time>
      </trkpt>
      <trkpt lat="49.47957" lon="3.45183">
        <ele>118.65</ele>
        <time>2017-12-18T13:45:44.999Z</time>
      </trkpt>
      <trkpt lat="49.47958" lon="3.4517">
        <ele>118.56</ele>
        <time>2017-12-18T13:45:54.999Z</time>
      </trkpt>
      <trkpt lat="49.47959" lon="3.45158">
        <ele>118.68</ele>
        <time>2017-12-18T13:46:04.999Z</time>
      </trkpt>
      <trkpt lat="49.47963" lon="3.45144">
        <ele>118.66</ele>
        <time>2017-12-18T13:46:14.999Z</time>
      </trkpt>
      <trkpt lat="49.47967" lon="3.45124">
        <ele>119.56</ele>
        <time>2017-12-18T13:46:24.999Z</time>
      </trkpt>
      <trkpt lat="49.47969" lon="3.45104">
        <ele>123.49</ele>
        <time>2017-12-18T13:46:34.999Z</time>
      </trkpt>
      <trkpt lat="49.47974" lon="3.4509">
        <ele>127.53</ele>
        <time>2017-12-18T13:46:44.999Z</time>
      </trkpt>
      <trkpt lat="49.47976" lon="3.45078">
        <ele>130.87</ele>
        <time>2017-12-18T13:46:54.999Z</time>
      </trkpt>
      <trkpt lat="49.47972" lon="3.45063">
        <ele>132.73</ele>
        <time>2017-12-18T13:47:04.999Z</time>
      </trkpt>
      <trkpt lat="49.4797" lon="3.45051">
        <ele>133.28</ele>
        <time>2017-12-18T13:47:14.999Z</time>
      </trkpt>
      <trkpt lat="49.47969" lon="3.45038">
        <ele>133.29</ele>
        <time>2017-12-18T13:47:24.999Z</time>
      </trkpt>
      <trkpt lat="49.47969" lon="3.45021">
        <ele>133.95</ele>
        <time>2017-12-18T13:47:34.999Z</time>
      </trkpt>
      <trkpt lat="49.47964" lon="3.44999">
        <ele>135.49</ele>
        <time>2017-12-18T13:47:44.999Z</time>
      </trkpt>
      <trkpt lat="49.47965" lon="3.44985">
        <ele>133.38</ele>
        <time>2017-12-18T13:47:54.999Z</time>
      </trkpt>
      <trkpt lat="49.47964" lon="3.44977">
        <ele>132.13</ele>
        <time>2017-12-18T13:48:04.999Z</time>
      </trkpt>
      <trkpt lat="49.47971" lon="3.44962">
        <ele>130.93</ele>
        <time>2017-12-18T13:48:14.999Z</time>
      </trkpt>
      <trkpt lat="49.47969" lon="3.44948">
        <ele>130.12</ele>
        <time>2017-12-18T13:48:24.999Z</time>
      </trkpt>
      <trkpt lat="49.47971" lon="3.44937">
        <ele>129.73</ele>
        <time>2017-12-18T13:48:34.999Z</time>
      </trkpt>
      <trkpt lat="49.47976" lon="3.44923">
        <ele>130.99</ele>
        <time>2017-12-18T13:48:44.999Z</time>
      </trkpt>
      <trkpt lat="49.47977" lon="3.44897">
        <ele>133.98</ele>
        <time>2017-12-18T13:48:54.999Z</time>
      </trkpt>
      <trkpt lat="49.4798" lon="3.44881">
        <ele>137.7</ele>
        <time>2017-12-18T13:49:04.999Z</time>
      </trkpt>
      <trkpt lat="49.47986" lon="3.44872">
        <ele>139.95</ele>
        <time>2017-12-18T13:49:14.999Z</time>
      </trkpt>
      <trkpt lat="49.47991" lon="3.4486">
        <ele>140.88</ele>
        <time>2017-12-18T13:49:24.999Z</time>
      </trkpt>
      <trkpt lat="49.47997" lon="3.44848">
        <ele>142.66</ele>
        <time>2017-12-18T13:49:34.999Z</time>
      </trkpt>
      <trkpt lat="49.47997" lon="3.4483">
        <ele>145.24</ele>
        <time>2017-12-18T13:49:44.999Z</time>
      </trkpt>
      <trkpt lat="49.47996" lon="3.44816">
        <ele>146.72</ele>
        <time>2017-12-18T13:49:54.999Z</time>
      </trkpt>
      <trkpt lat="49.47985" lon="3.4481">
        <ele>146.86</ele>
        <time>2017-12-18T13:50:04.999Z</time>
      </trkpt>
      <trkpt lat="49.47964" lon="3.44815">
        <ele>147.65</ele>
        <time>2017-12-18T13:50:14.999Z</time>
      </trkpt>
      <trkpt lat="49.47953" lon="3.44814">
        <ele>148.22</ele>
        <time>2017-12-18T13:50:24.999Z</time>
      </trkpt>
      <trkpt lat="49.47942" lon="3.44815">
        <ele>147.96</ele>
        <time>2017-12-18T13:50:34.999Z</time>
      </trkpt>
      <trkpt lat="49.47932" lon="3.44816">
        <ele>147.34</ele>
        <time>2017-12-18T13:50:44.999Z</time>
      </trkpt>
      <trkpt lat="49.47926" lon="3.44818">
        <ele>147.56</ele>
        <time>2017-12-18T13:50:54.999Z</time>
      </trkpt>
      <trkpt lat="49.47915" lon="3.44817">
        <ele>147.66</ele>
        <time>2017-12-18T13:51:04.999Z</time>
      </trkpt>
      <trkpt lat="49.47909" lon="3.44809">
        <ele>147.78</ele>
        <time>2017-12-18T13:51:14.999Z</time>
      </trkpt>
      <trkpt lat="49.47901" lon="3.44807">
        <ele>149.5</ele>
        <time>2017-12-18T13:51:24.999Z</time>
      </trkpt>
      <trkpt lat="49.47893" lon="3.44805">
        <ele>151.62</ele>
        <time>2017-12-18T13:51:34.999Z</time>
      </trkpt>
      <trkpt lat="49.47885" lon="3.44797">
        <ele>152.8</ele>
        <time>2017-12-18T13:51:44.999Z</time>
      </trkpt>
      <trkpt lat="49.47875" lon="3.44787">
        <ele>154.04</ele>
        <time>2017-12-18T13:51:54.999Z</time>
      </trkpt>
      <trkpt lat="49.47865" lon="3.44777">
        <ele>155.54</ele>
        <time>2017-12-18T13:52:04.999Z</time>
      </trkpt>
      <trkpt lat="49.47855" lon="3.44768">
        <ele>156.81</ele>
        <time>2017-12-18T13:52:14.999Z</time>
      </trkpt>
      <trkpt lat="49.47846" lon="3.44759">
        <ele>157.6</ele>
        <time>2017-12-18T13:52:24.999Z</time>
      </trkpt>
      <trkpt lat="49.47837" lon="3.44747">
        <ele>158</ele>
        <time>2017-12-18T13:52:34.999Z</time>
      </trkpt>
      <trkpt lat="49.47829" lon="3.44737">
        <ele>158.13</ele>
        <time>2017-12-18T13:52:44.999Z</time>
      </trkpt>
      <trkpt lat="49.47822" lon="3.44731">
        <ele>158.44</ele>
        <time>2017-12-18T13:52:54.999Z</time>
      </trkpt>
      <trkpt lat="49.47815" lon="3.44719">
        <ele>158.77</ele>
        <time>2017-12-18T13:53:04.999Z</time>
      </trkpt>
      <trkpt lat="49.47805" lon="3.44704">
        <ele>159.13</ele>
        <time>2017-12-18T13:53:14.999Z</time>
      </trkpt>
      <trkpt lat="49.47797" lon="3.44691">
        <ele>159.97</ele>
        <time>2017-12-18T13:53:24.999Z</time>
      </trkpt>
      <trkpt lat="49.47788" lon="3.44681">
        <ele>160.79</ele>
        <time>2017-12-18T13:53:34.999Z</time>
      </trkpt>
      <trkpt lat="49.47778" lon="3.44672">
        <ele>161.63</ele>
        <time>2017-12-18T13:53:44.999Z</time>
      </trkpt>
      <trkpt lat="49.47771" lon="3.44663">
        <ele>162.12</ele>
        <time>2017-12-18T13:53:54.999Z</time>
      </trkpt>
      <trkpt lat="49.47772" lon="3.44664">
        <ele>161.88</ele>
        <time>2017-12-18T13:54:07.999Z</time>
      </trkpt>
      <trkpt lat="49.47772" lon="3.44662">
        <ele>161.97</ele>
        <time>2017-12-18T13:54:40.999Z</time>
      </trkpt>
      <trkpt lat="49.47769" lon="3.44662">
        <ele>163.12</ele>
        <time>2017-12-18T13:54:50.999Z</time>
      </trkpt>
      <trkpt lat="49.47768" lon="3.44661">
        <ele>163.46</ele>
        <time>2017-12-18T13:55:00.999Z</time>
      </trkpt>
      <trkpt lat="49.47768" lon="3.4466">
        <ele>163.64</ele>
        <time>2017-12-18T13:55:10.999Z</time>
      </trkpt>
      <trkpt lat="49.47769" lon="3.4466">
        <ele>163.52</ele>
        <time>2017-12-18T13:55:24.999Z</time>
      </trkpt>
      <trkpt lat="49.4777" lon="3.44662">
        <ele>163.58</ele>
        <time>2017-12-18T13:55:34.999Z</time>
      </trkpt>
      <trkpt lat="49.47769" lon="3.44665">
        <ele>163.72</ele>
        <time>2017-12-18T13:55:44.999Z</time>
      </trkpt>
      <trkpt lat="49.47769" lon="3.44663">
        <ele>163.69</ele>
        <time>2017-12-18T13:55:58.999Z</time>
      </trkpt>
      <trkpt lat="49.47768" lon="3.44663">
        <ele>163.58</ele>
        <time>2017-12-18T13:56:08.999Z</time>
      </trkpt>
      <trkpt lat="49.47771" lon="3.44663">
        <ele>163.46</ele>
        <time>2017-12-18T13:56:18.999Z</time>
      </trkpt>
      <trkpt lat="49.47773" lon="3.44664">
        <ele>163.45</ele>
        <time>2017-12-18T13:56:28.999Z</time>
      </trkpt>
      <trkpt lat="49.47775" lon="3.44663">
        <ele>163.5</ele>
        <time>2017-12-18T13:56:38.999Z</time>
      </trkpt>
      <trkpt lat="49.47775" lon="3.44665">
        <ele>163.56</ele>
        <time>2017-12-18T13:56:48.999Z</time>
      </trkpt>
      <trkpt lat="49.47769" lon="3.44657">
        <ele>162.61</ele>
        <time>2017-12-18T13:56:58.999Z</time>
      </trkpt>
      <trkpt lat="49.47758" lon="3.44647">
        <ele>161.41</ele>
        <time>2017-12-18T13:57:08.999Z</time>
      </trkpt>
      <trkpt lat="49.47746" lon="3.44631">
        <ele>160.37</ele>
        <time>2017-12-18T13:57:18.999Z</time>
      </trkpt>
      <trkpt lat="49.47735" lon="3.44621">
        <ele>159.54</ele>
        <time>2017-12-18T13:57:28.999Z</time>
      </trkpt>
      <trkpt lat="49.47723" lon="3.4461">
        <ele>158.65</ele>
        <time>2017-12-18T13:57:38.999Z</time>
      </trkpt>
      <trkpt lat="49.47714" lon="3.446">
        <ele>157.73</ele>
        <time>2017-12-18T13:57:48.999Z</time>
      </trkpt>
      <trkpt lat="49.47702" lon="3.44586">
        <ele>156.13</ele>
        <time>2017-12-18T13:57:58.999Z</time>
      </trkpt>
      <trkpt lat="49.47694" lon="3.44574">
        <ele>155.04</ele>
        <time>2017-12-18T13:58:08.999Z</time>
      </trkpt>
      <trkpt lat="49.47685" lon="3.44566">
        <ele>154.33</ele>
        <time>2017-12-18T13:58:18.999Z</time>
      </trkpt>
      <trkpt lat="49.47677" lon="3.44558">
        <ele>153.56</ele>
        <time>2017-12-18T13:58:28.999Z</time>
      </trkpt>
      <trkpt lat="49.47673" lon="3.44555">
        <ele>152.45</ele>
        <time>2017-12-18T13:58:38.999Z</time>
      </trkpt>
      <trkpt lat="49.47664" lon="3.44542">
        <ele>151.04</ele>
        <time>2017-12-18T13:58:48.999Z</time>
      </trkpt>
      <trkpt lat="49.47656" lon="3.44523">
        <ele>150.83</ele>
        <time>2017-12-18T13:58:58.999Z</time>
      </trkpt>
      <trkpt lat="49.47649" lon="3.44512">
        <ele>150.98</ele>
        <time>2017-12-18T13:59:08.999Z</time>
      </trkpt>
      <trkpt lat="49.47641" lon="3.44505">
        <ele>150.72</ele>
        <time>2017-12-18T13:59:18.999Z</time>
      </trkpt>
      <trkpt lat="49.47632" lon="3.44492">
        <ele>150.28</ele>
        <time>2017-12-18T13:59:28.999Z</time>
      </trkpt>
      <trkpt lat="49.47628" lon="3.44487">
        <ele>149.94</ele>
        <time>2017-12-18T13:59:38.999Z</time>
      </trkpt>
      <trkpt lat="49.47621" lon="3.44477">
        <ele>149.56</ele>
        <time>2017-12-18T13:59:48.999Z</time>
      </trkpt>
      <trkpt lat="49.47615" lon="3.44464">
        <ele>149.31</ele>
        <time>2017-12-18T13:59:58.999Z</time>
      </trkpt>
      <trkpt lat="49.47607" lon="3.44451">
        <ele>149.6</ele>
        <time>2017-12-18T14:00:08.999Z</time>
      </trkpt>
      <trkpt lat="49.47601" lon="3.44434">
        <ele>150.34</ele>
        <time>2017-12-18T14:00:18.999Z</time>
      </trkpt>
      <trkpt lat="49.47603" lon="3.44432">
        <ele>150.83</ele>
        <time>2017-12-18T14:00:28.999Z</time>
      </trkpt>
      <trkpt lat="49.47604" lon="3.44433">
        <ele>151</ele>
        <time>2017-12-18T14:00:41.999Z</time>
      </trkpt>
      <trkpt lat="49.47604" lon="3.44433">
        <ele>151.17</ele>
        <time>2017-12-18T14:00:58.999Z</time>
      </trkpt>
      <trkpt lat="49.47602" lon="3.44435">
        <ele>151.52</ele>
        <time>2017-12-18T14:01:08.999Z</time>
      </trkpt>
      <trkpt lat="49.476" lon="3.44433">
        <ele>151.79</ele>
        <time>2017-12-18T14:01:18.999Z</time>
      </trkpt>
      <trkpt lat="49.47601" lon="3.44431">
        <ele>152.09</ele>
        <time>2017-12-18T14:01:36.999Z</time>
      </trkpt>
      <trkpt lat="49.47601" lon="3.44434">
        <ele>152.7</ele>
        <time>2017-12-18T14:01:46.999Z</time>
      </trkpt>
      <trkpt lat="49.47599" lon="3.44436">
        <ele>152.68</ele>
        <time>2017-12-18T14:01:56.999Z</time>
      </trkpt>
      <trkpt lat="49.47598" lon="3.44434">
        <ele>152.64</ele>
        <time>2017-12-18T14:02:06.999Z</time>
      </trkpt>
      <trkpt lat="49.47597" lon="3.4443">
        <ele>152.96</ele>
        <time>2017-12-18T14:02:16.999Z</time>
      </trkpt>
      <trkpt lat="49.47597" lon="3.44426">
        <ele>153.95</ele>
        <time>2017-12-18T14:02:26.999Z</time>
      </trkpt>
      <trkpt lat="49.47593" lon="3.44427">
        <ele>154.58</ele>
        <time>2017-12-18T14:02:36.999Z</time>
      </trkpt>
      <trkpt lat="49.47582" lon="3.44414">
        <ele>155.84</ele>
        <time>2017-12-18T14:02:46.999Z</time>
      </trkpt>
      <trkpt lat="49.47573" lon="3.44402">
        <ele>156.03</ele>
        <time>2017-12-18T14:02:56.999Z</time>
      </trkpt>
      <trkpt lat="49.47566" lon="3.44395">
        <ele>154.97</ele>
        <time>2017-12-18T14:03:06.999Z</time>
      </trkpt>
      <trkpt lat="49.4756" lon="3.44387">
        <ele>153.42</ele>
        <time>2017-12-18T14:03:16.999Z</time>
      </trkpt>
      <trkpt lat="49.4755" lon="3.44374">
        <ele>152.41</ele>
        <time>2017-12-18T14:03:26.999Z</time>
      </trkpt>
      <trkpt lat="49.47542" lon="3.44365">
        <ele>151.56</ele>
        <time>2017-12-18T14:03:36.000Z</time>
      </trkpt>
      <trkpt lat="49.47529" lon="3.44355">
        <ele>150.46</ele>
        <time>2017-12-18T14:03:46.000Z</time>
      </trkpt>
      <trkpt lat="49.47517" lon="3.44345">
        <ele>149.74</ele>
        <time>2017-12-18T14:03:56.000Z</time>
      </trkpt>
      <trkpt lat="49.47508" lon="3.44338">
        <ele>149.36</ele>
        <time>2017-12-18T14:04:06.000Z</time>
      </trkpt>
      <trkpt lat="49.47494" lon="3.44331">
        <ele>149.38</ele>
        <time>2017-12-18T14:04:16.000Z</time>
      </trkpt>
      <trkpt lat="49.47483" lon="3.44327">
        <ele>149.66</ele>
        <time>2017-12-18T14:04:26.000Z</time>
      </trkpt>
      <trkpt lat="49.47471" lon="3.44319">
        <ele>150.33</ele>
        <time>2017-12-18T14:04:36.000Z</time>
      </trkpt>
      <trkpt lat="49.4746" lon="3.44309">
        <ele>150.93</ele>
        <time>2017-12-18T14:04:46.000Z</time>
      </trkpt>
      <trkpt lat="49.47471" lon="3.44293">
        <ele>151.83</ele>
        <time>2017-12-18T14:04:56.000Z</time>
      </trkpt>
      <trkpt lat="49.47485" lon="3.44287">
        <ele>152.24</ele>
        <time>2017-12-18T14:05:06.000Z</time>
      </trkpt>
      <trkpt lat="49.47493" lon="3.44276">
        <ele>152.65</ele>
        <time>2017-12-18T14:05:16.000Z</time>
      </trkpt>
      <trkpt lat="49.47502" lon="3.44267">
        <ele>153.26</ele>
        <time>2017-12-18T14:05:26.000Z</time>
      </trkpt>
      <trkpt lat="49.47512" lon="3.44256">
        <ele>153.53</ele>
        <time>2017-12-18T14:05:36.000Z</time>
      </trkpt>
      <trkpt lat="49.47526" lon="3.44246">
        <ele>153.36</ele>
        <time>2017-12-18T14:05:46.000Z</time>
      </trkpt>
      <trkpt lat="49.47536" lon="3.44235">
        <ele>153.42</ele>
        <time>2017-12-18T14:05:56.000Z</time>
      </trkpt>
      <trkpt lat="49.47544" lon="3.44224">
        <ele>153.55</ele>
        <time>2017-12-18T14:06:06.000Z</time>
      </trkpt>
      <trkpt lat="49.47552" lon="3.44212">
        <ele>154.61</ele>
        <time>2017-12-18T14:06:16.000Z</time>
      </trkpt>
      <trkpt lat="49.47562" lon="3.442">
        <ele>155.56</ele>
        <time>2017-12-18T14:06:26.000Z</time>
      </trkpt>
      <trkpt lat="49.47573" lon="3.44189">
        <ele>156.47</ele>
        <time>2017-12-18T14:06:36.000Z</time>
      </trkpt>
      <trkpt lat="49.47584" lon="3.44178">
        <ele>156.74</ele>
        <time>2017-12-18T14:06:46.000Z</time>
      </trkpt>
      <trkpt lat="49.47596" lon="3.44168">
        <ele>156.79</ele>
        <time>2017-12-18T14:06:56.000Z</time>
      </trkpt>
      <trkpt lat="49.47604" lon="3.44158">
        <ele>156.8</ele>
        <time>2017-12-18T14:07:06.000Z</time>
      </trkpt>
      <trkpt lat="49.47614" lon="3.4415">
        <ele>157.09</ele>
        <time>2017-12-18T14:07:16.000Z</time>
      </trkpt>
      <trkpt lat="49.47621" lon="3.44145">
        <ele>156.96</ele>
        <time>2017-12-18T14:07:26.000Z</time>
      </trkpt>
      <trkpt lat="49.47626" lon="3.4414">
        <ele>157.18</ele>
        <time>2017-12-18T14:07:36.000Z</time>
      </trkpt>
      <trkpt lat="49.47637" lon="3.44135">
        <ele>157.55</ele>
        <time>2017-12-18T14:07:46.000Z</time>
      </trkpt>
      <trkpt lat="49.47638" lon="3.44136">
        <ele>157.45</ele>
        <time>2017-12-18T14:07:56.000Z</time>
      </trkpt>
      <trkpt lat="49.47637" lon="3.44134">
        <ele>157.3</ele>
        <time>2017-12-18T14:08:06.000Z</time>
      </trkpt>
      <trkpt lat="49.47636" lon="3.44133">
        <ele>157.17</ele>
        <time>2017-12-18T14:08:16.000Z</time>
      </trkpt>
      <trkpt lat="49.47635" lon="3.4413">
        <ele>156.9</ele>
        <time>2017-12-18T14:08:26.000Z</time>
      </trkpt>
      <trkpt lat="49.47635" lon="3.44132">
        <ele>156.75</ele>
        <time>2017-12-18T14:08:37.000Z</time>
      </trkpt>
      <trkpt lat="49.47634" lon="3.44132">
        <ele>157.43</ele>
        <time>2017-12-18T14:08:47.000Z</time>
      </trkpt>
      <trkpt lat="49.47632" lon="3.44135">
        <ele>158.36</ele>
        <time>2017-12-18T14:08:57.000Z</time>
      </trkpt>
      <trkpt lat="49.47631" lon="3.44133">
        <ele>158.8</ele>
        <time>2017-12-18T14:09:07.000Z</time>
      </trkpt>
      <trkpt lat="49.47632" lon="3.44135">
        <ele>158.92</ele>
        <time>2017-12-18T14:09:17.000Z</time>
      </trkpt>
      <trkpt lat="49.47632" lon="3.44137">
        <ele>158.96</ele>
        <time>2017-12-18T14:09:27.000Z</time>
      </trkpt>
      <trkpt lat="49.47633" lon="3.44136">
        <ele>158.81</ele>
        <time>2017-12-18T14:09:39.000Z</time>
      </trkpt>
      <trkpt lat="49.47634" lon="3.44136">
        <ele>158.62</ele>
        <time>2017-12-18T14:10:08.000Z</time>
      </trkpt>
      <trkpt lat="49.47634" lon="3.44133">
        <ele>158.79</ele>
        <time>2017-12-18T14:10:18.000Z</time>
      </trkpt>
      <trkpt lat="49.47633" lon="3.44131">
        <ele>158.68</ele>
        <time>2017-12-18T14:10:28.000Z</time>
      </trkpt>
      <trkpt lat="49.47632" lon="3.44131">
        <ele>158.67</ele>
        <time>2017-12-18T14:10:38.000Z</time>
      </trkpt>
      <trkpt lat="49.47633" lon="3.44131">
        <ele>158.61</ele>
        <time>2017-12-18T14:10:51.000Z</time>
      </trkpt>
      <trkpt lat="49.47634" lon="3.44134">
        <ele>158.79</ele>
        <time>2017-12-18T14:11:01.000Z</time>
      </trkpt>
      <trkpt lat="49.47633" lon="3.44135">
        <ele>158.89</ele>
        <time>2017-12-18T14:11:11.000Z</time>
      </trkpt>
      <trkpt lat="49.47631" lon="3.44134">
        <ele>158.79</ele>
        <time>2017-12-18T14:11:21.000Z</time>
      </trkpt>
      <trkpt lat="49.4763" lon="3.44133">
        <ele>159.62</ele>
        <time>2017-12-18T14:12:06.000Z</time>
      </trkpt>
      <trkpt lat="49.47629" lon="3.44132">
        <ele>159.63</ele>
        <time>2017-12-18T14:12:18.000Z</time>
      </trkpt>
      <trkpt lat="49.4763" lon="3.44133">
        <ele>159.51</ele>
        <time>2017-12-18T14:12:28.000Z</time>
      </trkpt>
      <trkpt lat="49.47632" lon="3.44132">
        <ele>158.8</ele>
        <time>2017-12-18T14:12:38.000Z</time>
      </trkpt>
      <trkpt lat="49.47631" lon="3.44133">
        <ele>158</ele>
        <time>2017-12-18T14:12:50.000Z</time>
      </trkpt>
      <trkpt lat="49.47631" lon="3.44135">
        <ele>157.8</ele>
        <time>2017-12-18T14:13:08.000Z</time>
      </trkpt>
      <trkpt lat="49.47632" lon="3.44136">
        <ele>157.96</ele>
        <time>2017-12-18T14:13:23.000Z</time>
      </trkpt>
      <trkpt lat="49.47631" lon="3.44138">
        <ele>158.69</ele>
        <time>2017-12-18T14:13:42.000Z</time>
      </trkpt>
      <trkpt lat="49.47632" lon="3.44137">
        <ele>159.25</ele>
        <time>2017-12-18T14:13:53.000Z</time>
      </trkpt>
      <trkpt lat="49.47638" lon="3.44136">
        <ele>159.14</ele>
        <time>2017-12-18T14:14:03.000Z</time>
      </trkpt>
      <trkpt lat="49.47637" lon="3.44135">
        <ele>158.72</ele>
        <time>2017-12-18T14:14:14.000Z</time>
      </trkpt>
      <trkpt lat="49.47638" lon="3.44136">
        <ele>158.48</ele>
        <time>2017-12-18T14:14:24.000Z</time>
      </trkpt>
      <trkpt lat="49.47639" lon="3.4414">
        <ele>158.39</ele>
        <time>2017-12-18T14:14:34.000Z</time>
      </trkpt>
      <trkpt lat="49.47639" lon="3.44138">
        <ele>158.38</ele>
        <time>2017-12-18T14:14:44.000Z</time>
      </trkpt>
      <trkpt lat="49.47637" lon="3.44136">
        <ele>158.17</ele>
        <time>2017-12-18T14:14:54.000Z</time>
      </trkpt>
      <trkpt lat="49.47635" lon="3.44133">
        <ele>157.9</ele>
        <time>2017-12-18T14:15:04.000Z</time>
      </trkpt>
      <trkpt lat="49.47635" lon="3.44134">
        <ele>157.89</ele>
        <time>2017-12-18T14:15:18.000Z</time>
      </trkpt>
      <trkpt lat="49.47637" lon="3.44134">
        <ele>157.84</ele>
        <time>2017-12-18T14:15:28.000Z</time>
      </trkpt>
      <trkpt lat="49.47638" lon="3.44134">
        <ele>157.63</ele>
        <time>2017-12-18T14:15:38.000Z</time>
      </trkpt>
      <trkpt lat="49.47639" lon="3.44136">
        <ele>157.51</ele>
        <time>2017-12-18T14:15:48.000Z</time>
      </trkpt>
      <trkpt lat="49.47636" lon="3.44133">
        <ele>156.67</ele>
        <time>2017-12-18T14:15:58.000Z</time>
      </trkpt>
      <trkpt lat="49.47636" lon="3.44131">
        <ele>155.98</ele>
        <time>2017-12-18T14:16:09.000Z</time>
      </trkpt>
      <trkpt lat="49.47643" lon="3.44129">
        <ele>155.8</ele>
        <time>2017-12-18T14:16:19.000Z</time>
      </trkpt>
      <trkpt lat="49.47646" lon="3.44128">
        <ele>155.63</ele>
        <time>2017-12-18T14:16:29.000Z</time>
      </trkpt>
      <trkpt lat="49.4765" lon="3.44124">
        <ele>155.95</ele>
        <time>2017-12-18T14:16:39.000Z</time>
      </trkpt>
      <trkpt lat="49.4765" lon="3.44123">
        <ele>156.53</ele>
        <time>2017-12-18T14:16:59.000Z</time>
      </trkpt>
      <trkpt lat="49.47648" lon="3.44122">
        <ele>156.7</ele>
        <time>2017-12-18T14:17:09.000Z</time>
      </trkpt>
      <trkpt lat="49.47649" lon="3.44125">
        <ele>157.11</ele>
        <time>2017-12-18T14:17:19.000Z</time>
      </trkpt>
      <trkpt lat="49.47655" lon="3.44125">
        <ele>157.26</ele>
        <time>2017-12-18T14:17:29.000Z</time>
      </trkpt>
      <trkpt lat="49.47666" lon="3.44116">
        <ele>157.92</ele>
        <time>2017-12-18T14:17:39.000Z</time>
      </trkpt>
      <trkpt lat="49.47674" lon="3.44098">
        <ele>158.13</ele>
        <time>2017-12-18T14:17:49.000Z</time>
      </trkpt>
      <trkpt lat="49.47681" lon="3.44082">
        <ele>157.55</ele>
        <time>2017-12-18T14:17:59.000Z</time>
      </trkpt>
      <trkpt lat="49.47692" lon="3.44065">
        <ele>157.01</ele>
        <time>2017-12-18T14:18:09.000Z</time>
      </trkpt>
      <trkpt lat="49.47702" lon="3.44056">
        <ele>156.68</ele>
        <time>2017-12-18T14:18:19.000Z</time>
      </trkpt>
      <trkpt lat="49.47712" lon="3.4405">
        <ele>156.44</ele>
        <time>2017-12-18T14:18:29.000Z</time>
      </trkpt>
      <trkpt lat="49.47723" lon="3.44042">
        <ele>156.19</ele>
        <time>2017-12-18T14:18:39.000Z</time>
      </trkpt>
      <trkpt lat="49.47732" lon="3.44033">
        <ele>155.59</ele>
        <time>2017-12-18T14:18:49.000Z</time>
      </trkpt>
      <trkpt lat="49.47738" lon="3.44033">
        <ele>154.12</ele>
        <time>2017-12-18T14:18:59.000Z</time>
      </trkpt>
      <trkpt lat="49.47753" lon="3.44048">
        <ele>153.55</ele>
        <time>2017-12-18T14:19:09.000Z</time>
      </trkpt>
      <trkpt lat="49.47762" lon="3.44064">
        <ele>154.05</ele>
        <time>2017-12-18T14:19:19.000Z</time>
      </trkpt>
      <trkpt lat="49.47771" lon="3.44081">
        <ele>154.97</ele>
        <time>2017-12-18T14:19:29.000Z</time>
      </trkpt>
      <trkpt lat="49.47779" lon="3.44096">
        <ele>156.35</ele>
        <time>2017-12-18T14:19:39.000Z</time>
      </trkpt>
      <trkpt lat="49.47788" lon="3.44108">
        <ele>158.24</ele>
        <time>2017-12-18T14:19:49.000Z</time>
      </trkpt>
      <trkpt lat="49.47794" lon="3.44121">
        <ele>159.7</ele>
        <time>2017-12-18T14:19:59.000Z</time>
      </trkpt>
      <trkpt lat="49.47802" lon="3.44135">
        <ele>160.41</ele>
        <time>2017-12-18T14:20:09.000Z</time>
      </trkpt>
      <trkpt lat="49.4781" lon="3.44149">
        <ele>160.06</ele>
        <time>2017-12-18T14:20:19.000Z</time>
      </trkpt>
      <trkpt lat="49.47818" lon="3.44161">
        <ele>159.92</ele>
        <time>2017-12-18T14:20:29.000Z</time>
      </trkpt>
      <trkpt lat="49.47825" lon="3.4417">
        <ele>159.83</ele>
        <time>2017-12-18T14:20:39.000Z</time>
      </trkpt>
      <trkpt lat="49.47837" lon="3.4418">
        <ele>160.24</ele>
        <time>2017-12-18T14:20:49.000Z</time>
      </trkpt>
      <trkpt lat="49.47847" lon="3.44189">
        <ele>160.18</ele>
        <time>2017-12-18T14:20:59.000Z</time>
      </trkpt>
      <trkpt lat="49.47857" lon="3.44199">
        <ele>160.11</ele>
        <time>2017-12-18T14:21:09.000Z</time>
      </trkpt>
      <trkpt lat="49.47864" lon="3.44211">
        <ele>160.14</ele>
        <time>2017-12-18T14:21:19.000Z</time>
      </trkpt>
      <trkpt lat="49.47871" lon="3.44225">
        <ele>159.35</ele>
        <time>2017-12-18T14:21:29.000Z</time>
      </trkpt>
      <trkpt lat="49.47878" lon="3.44239">
        <ele>158.59</ele>
        <time>2017-12-18T14:21:39.000Z</time>
      </trkpt>
      <trkpt lat="49.47884" lon="3.44251">
        <ele>157.57</ele>
        <time>2017-12-18T14:21:49.000Z</time>
      </trkpt>
      <trkpt lat="49.4789" lon="3.44261">
        <ele>156.74</ele>
        <time>2017-12-18T14:21:59.000Z</time>
      </trkpt>
      <trkpt lat="49.47897" lon="3.44274">
        <ele>156.47</ele>
        <time>2017-12-18T14:22:09.000Z</time>
      </trkpt>
      <trkpt lat="49.47907" lon="3.4428">
        <ele>156.3</ele>
        <time>2017-12-18T14:22:19.000Z</time>
      </trkpt>
      <trkpt lat="49.4792" lon="3.44286">
        <ele>155.63</ele>
        <time>2017-12-18T14:22:29.000Z</time>
      </trkpt>
      <trkpt lat="49.47932" lon="3.44297">
        <ele>156.44</ele>
        <time>2017-12-18T14:22:39.000Z</time>
      </trkpt>
      <trkpt lat="49.47938" lon="3.44307">
        <ele>157.28</ele>
        <time>2017-12-18T14:22:49.000Z</time>
      </trkpt>
      <trkpt lat="49.47946" lon="3.44313">
        <ele>157.7</ele>
        <time>2017-12-18T14:22:59.000Z</time>
      </trkpt>
      <trkpt lat="49.47957" lon="3.44318">
        <ele>157.78</ele>
        <time>2017-12-18T14:23:09.000Z</time>
      </trkpt>
      <trkpt lat="49.4797" lon="3.44319">
        <ele>158.13</ele>
        <time>2017-12-18T14:23:19.000Z</time>
      </trkpt>
      <trkpt lat="49.47979" lon="3.44323">
        <ele>158.27</ele>
        <time>2017-12-18T14:23:29.000Z</time>
      </trkpt>
      <trkpt lat="49.47993" lon="3.44321">
        <ele>158.78</ele>
        <time>2017-12-18T14:23:39.000Z</time>
      </trkpt>
      <trkpt lat="49.48004" lon="3.44319">
        <ele>158.8</ele>
        <time>2017-12-18T14:23:49.000Z</time>
      </trkpt>
      <trkpt lat="49.48016" lon="3.44313">
        <ele>158.53</ele>
        <time>2017-12-18T14:23:59.000Z</time>
      </trkpt>
      <trkpt lat="49.4803" lon="3.44311">
        <ele>158.45</ele>
        <time>2017-12-18T14:24:09.000Z</time>
      </trkpt>
      <trkpt lat="49.4804" lon="3.44304">
        <ele>158.78</ele>
        <time>2017-12-18T14:24:19.000Z</time>
      </trkpt>
      <trkpt lat="49.48047" lon="3.44302">
        <ele>158.07</ele>
        <time>2017-12-18T14:24:29.000Z</time>
      </trkpt>
      <trkpt lat="49.48054" lon="3.44296">
        <ele>157.04</ele>
        <time>2017-12-18T14:24:39.000Z</time>
      </trkpt>
      <trkpt lat="49.48065" lon="3.44284">
        <ele>156.05</ele>
        <time>2017-12-18T14:24:49.000Z</time>
      </trkpt>
      <trkpt lat="49.48076" lon="3.44277">
        <ele>155.37</ele>
        <time>2017-12-18T14:24:59.000Z</time>
      </trkpt>
      <trkpt lat="49.48084" lon="3.44264">
        <ele>154.77</ele>
        <time>2017-12-18T14:25:08.999Z</time>
      </trkpt>
      <trkpt lat="49.48092" lon="3.44254">
        <ele>154.63</ele>
        <time>2017-12-18T14:25:18.999Z</time>
      </trkpt>
      <trkpt lat="49.48099" lon="3.44244">
        <ele>155.38</ele>
        <time>2017-12-18T14:25:28.999Z</time>
      </trkpt>
      <trkpt lat="49.48107" lon="3.4423">
        <ele>155.67</ele>
        <time>2017-12-18T14:25:38.999Z</time>
      </trkpt>
      <trkpt lat="49.48111" lon="3.44216">
        <ele>155.96</ele>
        <time>2017-12-18T14:25:48.999Z</time>
      </trkpt>
      <trkpt lat="49.48115" lon="3.44201">
        <ele>155.88</ele>
        <time>2017-12-18T14:25:58.999Z</time>
      </trkpt>
      <trkpt lat="49.48122" lon="3.44185">
        <ele>155.71</ele>
        <time>2017-12-18T14:26:08.999Z</time>
      </trkpt>
      <trkpt lat="49.48128" lon="3.4417">
        <ele>155.55</ele>
        <time>2017-12-18T14:26:18.999Z</time>
      </trkpt>
      <trkpt lat="49.48137" lon="3.4416">
        <ele>155.6</ele>
        <time>2017-12-18T14:26:28.999Z</time>
      </trkpt>
      <trkpt lat="49.48145" lon="3.44157">
        <ele>155.08</ele>
        <time>2017-12-18T14:26:38.999Z</time>
      </trkpt>
      <trkpt lat="49.48149" lon="3.44156">
        <ele>154.72</ele>
        <time>2017-12-18T14:26:48.999Z</time>
      </trkpt>
      <trkpt lat="49.48154" lon="3.44164">
        <ele>154.07</ele>
        <time>2017-12-18T14:26:58.999Z</time>
      </trkpt>
      <trkpt lat="49.48152" lon="3.44162">
        <ele>153.52</ele>
        <time>2017-12-18T14:27:08.999Z</time>
      </trkpt>
      <trkpt lat="49.48151" lon="3.44169">
        <ele>152.88</ele>
        <time>2017-12-18T14:27:18.999Z</time>
      </trkpt>
      <trkpt lat="49.48155" lon="3.44167">
        <ele>151.5</ele>
        <time>2017-12-18T14:27:28.999Z</time>
      </trkpt>
      <trkpt lat="49.48165" lon="3.44168">
        <ele>150.38</ele>
        <time>2017-12-18T14:27:38.999Z</time>
      </trkpt>
      <trkpt lat="49.48167" lon="3.44167">
        <ele>150.15</ele>
        <time>2017-12-18T14:27:48.999Z</time>
      </trkpt>
      <trkpt lat="49.48175" lon="3.44168">
        <ele>150.02</ele>
        <time>2017-12-18T14:27:58.999Z</time>
      </trkpt>
      <trkpt lat="49.48186" lon="3.44165">
        <ele>149.29</ele>
        <time>2017-12-18T14:28:08.999Z</time>
      </trkpt>
      <trkpt lat="49.48193" lon="3.44166">
        <ele>148.26</ele>
        <time>2017-12-18T14:28:18.999Z</time>
      </trkpt>
      <trkpt lat="49.48204" lon="3.4416">
        <ele>147.82</ele>
        <time>2017-12-18T14:28:28.999Z</time>
      </trkpt>
      <trkpt lat="49.48219" lon="3.44153">
        <ele>148.12</ele>
        <time>2017-12-18T14:28:38.999Z</time>
      </trkpt>
      <trkpt lat="49.48226" lon="3.44151">
        <ele>148.49</ele>
        <time>2017-12-18T14:28:48.999Z</time>
      </trkpt>
      <trkpt lat="49.48231" lon="3.4414">
        <ele>148.89</ele>
        <time>2017-12-18T14:28:58.999Z</time>
      </trkpt>
      <trkpt lat="49.48242" lon="3.44134">
        <ele>149.05</ele>
        <time>2017-12-18T14:29:08.999Z</time>
      </trkpt>
      <trkpt lat="49.48251" lon="3.44131">
        <ele>148.6</ele>
        <time>2017-12-18T14:29:18.999Z</time>
      </trkpt>
      <trkpt lat="49.48259" lon="3.44122">
        <ele>147.68</ele>
        <time>2017-12-18T14:29:28.999Z</time>
      </trkpt>
      <trkpt lat="49.4827" lon="3.4411">
        <ele>147.9</ele>
        <time>2017-12-18T14:29:38.999Z</time>
      </trkpt>
      <trkpt lat="49.48279" lon="3.44105">
        <ele>148.01</ele>
        <time>2017-12-18T14:29:48.999Z</time>
      </trkpt>
      <trkpt lat="49.48286" lon="3.441">
        <ele>147.03</ele>
        <time>2017-12-18T14:29:58.999Z</time>
      </trkpt>
      <trkpt lat="49.48295" lon="3.44092">
        <ele>146.26</ele>
        <time>2017-12-18T14:30:08.999Z</time>
      </trkpt>
      <trkpt lat="49.4831" lon="3.44087">
        <ele>146.12</ele>
        <time>2017-12-18T14:30:18.999Z</time>
      </trkpt>
      <trkpt lat="49.48323" lon="3.44084">
        <ele>146.47</ele>
        <time>2017-12-18T14:30:28.999Z</time>
      </trkpt>
      <trkpt lat="49.4833" lon="3.44074">
        <ele>146.18</ele>
        <time>2017-12-18T14:30:38.999Z</time>
      </trkpt>
      <trkpt lat="49.48336" lon="3.44062">
        <ele>145.34</ele>
        <time>2017-12-18T14:30:48.999Z</time>
      </trkpt>
      <trkpt lat="49.48339" lon="3.44046">
        <ele>144.99</ele>
        <time>2017-12-18T14:30:58.999Z</time>
      </trkpt>
      <trkpt lat="49.48335" lon="3.4402">
        <ele>145.52</ele>
        <time>2017-12-18T14:31:08.999Z</time>
      </trkpt>
      <trkpt lat="49.48335" lon="3.44007">
        <ele>146.39</ele>
        <time>2017-12-18T14:31:18.999Z</time>
      </trkpt>
      <trkpt lat="49.48337" lon="3.43994">
        <ele>146.57</ele>
        <time>2017-12-18T14:31:28.999Z</time>
      </trkpt>
      <trkpt lat="49.48343" lon="3.43986">
        <ele>147.15</ele>
        <time>2017-12-18T14:31:38.999Z</time>
      </trkpt>
      <trkpt lat="49.48348" lon="3.43973">
        <ele>147.01</ele>
        <time>2017-12-18T14:31:48.999Z</time>
      </trkpt>
      <trkpt lat="49.48352" lon="3.43957">
        <ele>146.64</ele>
        <time>2017-12-18T14:31:58.999Z</time>
      </trkpt>
      <trkpt lat="49.48352" lon="3.43945">
        <ele>147.57</ele>
        <time>2017-12-18T14:32:08.999Z</time>
      </trkpt>
      <trkpt lat="49.48352" lon="3.43934">
        <ele>148.06</ele>
        <time>2017-12-18T14:32:18.999Z</time>
      </trkpt>
      <trkpt lat="49.48356" lon="3.43921">
        <ele>148.4</ele>
        <time>2017-12-18T14:32:28.999Z</time>
      </trkpt>
      <trkpt lat="49.48362" lon="3.4391">
        <ele>148.61</ele>
        <time>2017-12-18T14:32:38.999Z</time>
      </trkpt>
      <trkpt lat="49.48361" lon="3.43887">
        <ele>147.95</ele>
        <time>2017-12-18T14:32:48.999Z</time>
      </trkpt>
      <trkpt lat="49.48363" lon="3.43875">
        <ele>147.72</ele>
        <time>2017-12-18T14:32:58.999Z</time>
      </trkpt>
      <trkpt lat="49.48359" lon="3.43871">
        <ele>147.79</ele>
        <time>2017-12-18T14:33:08.999Z</time>
      </trkpt>
      <trkpt lat="49.48357" lon="3.43867">
        <ele>147.7</ele>
        <time>2017-12-18T14:33:18.999Z</time>
      </trkpt>
      <trkpt lat="49.48357" lon="3.43863">
        <ele>148.18</ele>
        <time>2017-12-18T14:33:28.999Z</time>
      </trkpt>
      <trkpt lat="49.48359" lon="3.43856">
        <ele>148.26</ele>
        <time>2017-12-18T14:33:38.999Z</time>
      </trkpt>
      <trkpt lat="49.48362" lon="3.43843">
        <ele>148.86</ele>
        <time>2017-12-18T14:33:48.999Z</time>
      </trkpt>
      <trkpt lat="49.48368" lon="3.43835">
        <ele>148.45</ele>
        <time>2017-12-18T14:33:58.999Z</time>
      </trkpt>
      <trkpt lat="49.48374" lon="3.43819">
        <ele>147.72</ele>
        <time>2017-12-18T14:34:08.999Z</time>
      </trkpt>
      <trkpt lat="49.4838" lon="3.43813">
        <ele>147.46</ele>
        <time>2017-12-18T14:34:18.999Z</time>
      </trkpt>
      <trkpt lat="49.48388" lon="3.43816">
        <ele>147.3</ele>
        <time>2017-12-18T14:34:28.999Z</time>
      </trkpt>
      <trkpt lat="49.48394" lon="3.43826">
        <ele>147.34</ele>
        <time>2017-12-18T14:34:38.999Z</time>
      </trkpt>
      <trkpt lat="49.48398" lon="3.43842">
        <ele>147.15</ele>
        <time>2017-12-18T14:34:48.999Z</time>
      </trkpt>
      <trkpt lat="49.48402" lon="3.43857">
        <ele>145.75</ele>
        <time>2017-12-18T14:34:58.999Z</time>
      </trkpt>
      <trkpt lat="49.48407" lon="3.43873">
        <ele>145.04</ele>
        <time>2017-12-18T14:35:08.999Z</time>
      </trkpt>
      <trkpt lat="49.48409" lon="3.43891">
        <ele>143.95</ele>
        <time>2017-12-18T14:35:18.999Z</time>
      </trkpt>
      <trkpt lat="49.48412" lon="3.43905">
        <ele>143.36</ele>
        <time>2017-12-18T14:35:28.999Z</time>
      </trkpt>
      <trkpt lat="49.48417" lon="3.43917">
        <ele>142.43</ele>
        <time>2017-12-18T14:35:38.999Z</time>
      </trkpt>
      <trkpt lat="49.48426" lon="3.43932">
        <ele>141.83</ele>
        <time>2017-12-18T14:35:48.999Z</time>
      </trkpt>
      <trkpt lat="49.48436" lon="3.43944">
        <ele>141.91</ele>
        <time>2017-12-18T14:35:58.999Z</time>
      </trkpt>
      <trkpt lat="49.48441" lon="3.43957">
        <ele>142.47</ele>
        <time>2017-12-18T14:36:08.999Z</time>
      </trkpt>
      <trkpt lat="49.48443" lon="3.43972">
        <ele>143.19</ele>
        <time>2017-12-18T14:36:18.999Z</time>
      </trkpt>
      <trkpt lat="49.48452" lon="3.43989">
        <ele>143.47</ele>
        <time>2017-12-18T14:36:28.999Z</time>
      </trkpt>
      <trkpt lat="49.48453" lon="3.44007">
        <ele>143</ele>
        <time>2017-12-18T14:36:38.999Z</time>
      </trkpt>
      <trkpt lat="49.48447" lon="3.44027">
        <ele>143.22</ele>
        <time>2017-12-18T14:36:48.999Z</time>
      </trkpt>
      <trkpt lat="49.48449" lon="3.44039">
        <ele>143.71</ele>
        <time>2017-12-18T14:36:58.999Z</time>
      </trkpt>
      <trkpt lat="49.48446" lon="3.44053">
        <ele>144.34</ele>
        <time>2017-12-18T14:37:08.999Z</time>
      </trkpt>
      <trkpt lat="49.48438" lon="3.44071">
        <ele>145.22</ele>
        <time>2017-12-18T14:37:18.999Z</time>
      </trkpt>
      <trkpt lat="49.48434" lon="3.44083">
        <ele>145.66</ele>
        <time>2017-12-18T14:37:28.999Z</time>
      </trkpt>
      <trkpt lat="49.48424" lon="3.44101">
        <ele>145.78</ele>
        <time>2017-12-18T14:37:38.999Z</time>
      </trkpt>
      <trkpt lat="49.48417" lon="3.44113">
        <ele>146.73</ele>
        <time>2017-12-18T14:37:48.999Z</time>
      </trkpt>
      <trkpt lat="49.48411" lon="3.4412">
        <ele>147.86</ele>
        <time>2017-12-18T14:37:58.999Z</time>
      </trkpt>
      <trkpt lat="49.48408" lon="3.44115">
        <ele>148.8</ele>
        <time>2017-12-18T14:38:08.999Z</time>
      </trkpt>
      <trkpt lat="49.48401" lon="3.44113">
        <ele>148.84</ele>
        <time>2017-12-18T14:38:18.999Z</time>
      </trkpt>
      <trkpt lat="49.48397" lon="3.44112">
        <ele>149.16</ele>
        <time>2017-12-18T14:38:28.999Z</time>
      </trkpt>
      <trkpt lat="49.48398" lon="3.44115">
        <ele>149.21</ele>
        <time>2017-12-18T14:38:38.999Z</time>
      </trkpt>
      <trkpt lat="49.48393" lon="3.44106">
        <ele>148.99</ele>
        <time>2017-12-18T14:38:48.999Z</time>
      </trkpt>
      <trkpt lat="49.48396" lon="3.44112">
        <ele>148.93</ele>
        <time>2017-12-18T14:38:58.999Z</time>
      </trkpt>
      <trkpt lat="49.48398" lon="3.44116">
        <ele>148.83</ele>
        <time>2017-12-18T14:39:08.999Z</time>
      </trkpt>
      <trkpt lat="49.484" lon="3.44119">
        <ele>148.58</ele>
        <time>2017-12-18T14:39:18.999Z</time>
      </trkpt>
      <trkpt lat="49.48402" lon="3.44117">
        <ele>147.9</ele>
        <time>2017-12-18T14:39:28.999Z</time>
      </trkpt>
      <trkpt lat="49.48403" lon="3.44116">
        <ele>147.26</ele>
        <time>2017-12-18T14:39:41.999Z</time>
      </trkpt>
      <trkpt lat="49.48404" lon="3.44117">
        <ele>147.04</ele>
        <time>2017-12-18T14:39:51.999Z</time>
      </trkpt>
      <trkpt lat="49.48411" lon="3.44122">
        <ele>146.15</ele>
        <time>2017-12-18T14:40:01.999Z</time>
      </trkpt>
      <trkpt lat="49.48418" lon="3.44119">
        <ele>145.59</ele>
        <time>2017-12-18T14:40:11.999Z</time>
      </trkpt>
      <trkpt lat="49.48424" lon="3.44126">
        <ele>144.68</ele>
        <time>2017-12-18T14:40:21.999Z</time>
      </trkpt>
      <trkpt lat="49.48431" lon="3.44131">
        <ele>144.85</ele>
        <time>2017-12-18T14:40:31.999Z</time>
      </trkpt>
      <trkpt lat="49.4844" lon="3.44148">
        <ele>145.91</ele>
        <time>2017-12-18T14:40:41.999Z</time>
      </trkpt>
      <trkpt lat="49.48439" lon="3.44159">
        <ele>147.41</ele>
        <time>2017-12-18T14:40:51.999Z</time>
      </trkpt>
      <trkpt lat="49.48438" lon="3.44173">
        <ele>147.81</ele>
        <time>2017-12-18T14:41:01.999Z</time>
      </trkpt>
      <trkpt lat="49.48432" lon="3.44196">
        <ele>148.34</ele>
        <time>2017-12-18T14:41:11.999Z</time>
      </trkpt>
      <trkpt lat="49.48425" lon="3.44222">
        <ele>148.82</ele>
        <time>2017-12-18T14:41:21.999Z</time>
      </trkpt>
      <trkpt lat="49.4842" lon="3.4424">
        <ele>148.87</ele>
        <time>2017-12-18T14:41:31.999Z</time>
      </trkpt>
      <trkpt lat="49.48414" lon="3.44253">
        <ele>148.86</ele>
        <time>2017-12-18T14:41:41.999Z</time>
      </trkpt>
      <trkpt lat="49.48405" lon="3.44269">
        <ele>148.84</ele>
        <time>2017-12-18T14:41:51.999Z</time>
      </trkpt>
      <trkpt lat="49.48399" lon="3.44285">
        <ele>148.89</ele>
        <time>2017-12-18T14:42:01.999Z</time>
      </trkpt>
      <trkpt lat="49.48395" lon="3.44299">
        <ele>149.14</ele>
        <time>2017-12-18T14:42:11.999Z</time>
      </trkpt>
      <trkpt lat="49.48391" lon="3.4431">
        <ele>149.37</ele>
        <time>2017-12-18T14:42:21.999Z</time>
      </trkpt>
      <trkpt lat="49.48386" lon="3.44323">
        <ele>149.34</ele>
        <time>2017-12-18T14:42:31.999Z</time>
      </trkpt>
      <trkpt lat="49.48381" lon="3.44338">
        <ele>148.91</ele>
        <time>2017-12-18T14:42:41.999Z</time>
      </trkpt>
      <trkpt lat="49.48376" lon="3.44349">
        <ele>148.39</ele>
        <time>2017-12-18T14:42:51.999Z</time>
      </trkpt>
      <trkpt lat="49.48372" lon="3.44363">
        <ele>147.43</ele>
        <time>2017-12-18T14:43:01.999Z</time>
      </trkpt>
      <trkpt lat="49.48365" lon="3.4438">
        <ele>146.41</ele>
        <time>2017-12-18T14:43:11.999Z</time>
      </trkpt>
      <trkpt lat="49.4836" lon="3.44399">
        <ele>145.35</ele>
        <time>2017-12-18T14:43:21.999Z</time>
      </trkpt>
      <trkpt lat="49.48358" lon="3.44414">
        <ele>144.46</ele>
        <time>2017-12-18T14:43:31.999Z</time>
      </trkpt>
      <trkpt lat="49.48353" lon="3.44432">
        <ele>143.38</ele>
        <time>2017-12-18T14:43:41.999Z</time>
      </trkpt>
      <trkpt lat="49.48351" lon="3.44447">
        <ele>142.61</ele>
        <time>2017-12-18T14:43:51.999Z</time>
      </trkpt>
      <trkpt lat="49.48354" lon="3.4446">
        <ele>142.49</ele>
        <time>2017-12-18T14:44:01.999Z</time>
      </trkpt>
      <trkpt lat="49.48359" lon="3.44481">
        <ele>142.92</ele>
        <time>2017-12-18T14:44:11.999Z</time>
      </trkpt>
      <trkpt lat="49.48357" lon="3.44498">
        <ele>144.11</ele>
        <time>2017-12-18T14:44:21.999Z</time>
      </trkpt>
      <trkpt lat="49.48346" lon="3.44517">
        <ele>146.04</ele>
        <time>2017-12-18T14:44:31.999Z</time>
      </trkpt>
      <trkpt lat="49.48339" lon="3.44533">
        <ele>147.35</ele>
        <time>2017-12-18T14:44:41.999Z</time>
      </trkpt>
      <trkpt lat="49.48331" lon="3.44553">
        <ele>148.02</ele>
        <time>2017-12-18T14:44:51.999Z</time>
      </trkpt>
      <trkpt lat="49.48322" lon="3.44572">
        <ele>149.06</ele>
        <time>2017-12-18T14:45:01.999Z</time>
      </trkpt>
      <trkpt lat="49.48321" lon="3.44588">
        <ele>149.19</ele>
        <time>2017-12-18T14:45:11.999Z</time>
      </trkpt>
      <trkpt lat="49.48324" lon="3.44592">
        <ele>149.06</ele>
        <time>2017-12-18T14:45:21.999Z</time>
      </trkpt>
      <trkpt lat="49.48319" lon="3.44605">
        <ele>150.3</ele>
        <time>2017-12-18T14:45:31.999Z</time>
      </trkpt>
      <trkpt lat="49.48314" lon="3.44623">
        <ele>151.47</ele>
        <time>2017-12-18T14:45:41.999Z</time>
      </trkpt>
      <trkpt lat="49.48308" lon="3.44644">
        <ele>151.63</ele>
        <time>2017-12-18T14:45:51.999Z</time>
      </trkpt>
      <trkpt lat="49.48296" lon="3.4466">
        <ele>152.25</ele>
        <time>2017-12-18T14:46:01.999Z</time>
      </trkpt>
      <trkpt lat="49.48292" lon="3.4467">
        <ele>153.11</ele>
        <time>2017-12-18T14:46:11.999Z</time>
      </trkpt>
      <trkpt lat="49.48308" lon="3.44679">
        <ele>153.1</ele>
        <time>2017-12-18T14:46:21.999Z</time>
      </trkpt>
      <trkpt lat="49.48312" lon="3.4469">
        <ele>152.77</ele>
        <time>2017-12-18T14:46:31.999Z</time>
      </trkpt>
      <trkpt lat="49.48314" lon="3.44688">
        <ele>152.64</ele>
        <time>2017-12-18T14:46:41.000Z</time>
      </trkpt>
      <trkpt lat="49.48313" lon="3.44685">
        <ele>152.5</ele>
        <time>2017-12-18T14:46:51.000Z</time>
      </trkpt>
      <trkpt lat="49.48317" lon="3.44693">
        <ele>152.73</ele>
        <time>2017-12-18T14:47:01.000Z</time>
      </trkpt>
      <trkpt lat="49.48317" lon="3.44697">
        <ele>152.93</ele>
        <time>2017-12-18T14:47:11.000Z</time>
      </trkpt>
      <trkpt lat="49.48316" lon="3.447">
        <ele>154.13</ele>
        <time>2017-12-18T14:47:21.000Z</time>
      </trkpt>
      <trkpt lat="49.48323" lon="3.44713">
        <ele>154.52</ele>
        <time>2017-12-18T14:47:31.000Z</time>
      </trkpt>
      <trkpt lat="49.48328" lon="3.44722">
        <ele>154.27</ele>
        <time>2017-12-18T14:47:41.000Z</time>
      </trkpt>
      <trkpt lat="49.48331" lon="3.4473">
        <ele>153.82</ele>
        <time>2017-12-18T14:47:51.000Z</time>
      </trkpt>
      <trkpt lat="49.48347" lon="3.44743">
        <ele>153.44</ele>
        <time>2017-12-18T14:48:01.000Z</time>
      </trkpt>
      <trkpt lat="49.48349" lon="3.44762">
        <ele>152.41</ele>
        <time>2017-12-18T14:48:11.000Z</time>
      </trkpt>
      <trkpt lat="49.48345" lon="3.44783">
        <ele>151.86</ele>
        <time>2017-12-18T14:48:21.000Z</time>
      </trkpt>
      <trkpt lat="49.48345" lon="3.44801">
        <ele>151.34</ele>
        <time>2017-12-18T14:48:31.000Z</time>
      </trkpt>
      <trkpt lat="49.48344" lon="3.44803">
        <ele>151.13</ele>
        <time>2017-12-18T14:48:41.000Z</time>
      </trkpt>
      <trkpt lat="49.48345" lon="3.44815">
        <ele>149.8</ele>
        <time>2017-12-18T14:48:51.000Z</time>
      </trkpt>
      <trkpt lat="49.48345" lon="3.44822">
        <ele>147.1</ele>
        <time>2017-12-18T14:49:01.000Z</time>
      </trkpt>
      <trkpt lat="49.48345" lon="3.44833">
        <ele>145.04</ele>
        <time>2017-12-18T14:49:11.000Z</time>
      </trkpt>
      <trkpt lat="49.48349" lon="3.44842">
        <ele>143.31</ele>
        <time>2017-12-18T14:49:21.000Z</time>
      </trkpt>
      <trkpt lat="49.4835" lon="3.44847">
        <ele>141.71</ele>
        <time>2017-12-18T14:49:31.000Z</time>
      </trkpt>
      <trkpt lat="49.48354" lon="3.44858">
        <ele>140.96</ele>
        <time>2017-12-18T14:49:41.000Z</time>
      </trkpt>
      <trkpt lat="49.48353" lon="3.44862">
        <ele>140.86</ele>
        <time>2017-12-18T14:49:51.000Z</time>
      </trkpt>
      <trkpt lat="49.48354" lon="3.44863">
        <ele>140.64</ele>
        <time>2017-12-18T14:50:01.000Z</time>
      </trkpt>
      <trkpt lat="49.48354" lon="3.44865">
        <ele>139.51</ele>
        <time>2017-12-18T14:50:11.000Z</time>
      </trkpt>
      <trkpt lat="49.48355" lon="3.44874">
        <ele>138.23</ele>
        <time>2017-12-18T14:50:21.000Z</time>
      </trkpt>
      <trkpt lat="49.48357" lon="3.44883">
        <ele>137.44</ele>
        <time>2017-12-18T14:50:31.000Z</time>
      </trkpt>
      <trkpt lat="49.48359" lon="3.44895">
        <ele>134.33</ele>
        <time>2017-12-18T14:50:41.000Z</time>
      </trkpt>
      <trkpt lat="49.48366" lon="3.44905">
        <ele>132.9</ele>
        <time>2017-12-18T14:50:51.000Z</time>
      </trkpt>
      <trkpt lat="49.48362" lon="3.44923">
        <ele>131.55</ele>
        <time>2017-12-18T14:51:01.000Z</time>
      </trkpt>
      <trkpt lat="49.48364" lon="3.44931">
        <ele>128.03</ele>
        <time>2017-12-18T14:51:11.000Z</time>
      </trkpt>
      <trkpt lat="49.48367" lon="3.44936">
        <ele>127.18</ele>
        <time>2017-12-18T14:51:21.000Z</time>
      </trkpt>
      <trkpt lat="49.48364" lon="3.44942">
        <ele>125.38</ele>
        <time>2017-12-18T14:51:31.000Z</time>
      </trkpt>
      <trkpt lat="49.48365" lon="3.44966">
        <ele>123.18</ele>
        <time>2017-12-18T14:51:41.000Z</time>
      </trkpt>
      <trkpt lat="49.48361" lon="3.44985">
        <ele>120.15</ele>
        <time>2017-12-18T14:51:51.000Z</time>
      </trkpt>
      <trkpt lat="49.4836" lon="3.45">
        <ele>117</ele>
        <time>2017-12-18T14:52:01.000Z</time>
      </trkpt>
      <trkpt lat="49.4836" lon="3.45017">
        <ele>114.43</ele>
        <time>2017-12-18T14:52:11.000Z</time>
      </trkpt>
      <trkpt lat="49.48358" lon="3.45034">
        <ele>112.34</ele>
        <time>2017-12-18T14:52:21.000Z</time>
      </trkpt>
      <trkpt lat="49.48355" lon="3.45052">
        <ele>110.55</ele>
        <time>2017-12-18T14:52:31.000Z</time>
      </trkpt>
      <trkpt lat="49.48355" lon="3.45066">
        <ele>108.41</ele>
        <time>2017-12-18T14:52:41.000Z</time>
      </trkpt>
      <trkpt lat="49.48354" lon="3.45081">
        <ele>106.56</ele>
        <time>2017-12-18T14:52:51.000Z</time>
      </trkpt>
      <trkpt lat="49.48354" lon="3.45097">
        <ele>105.34</ele>
        <time>2017-12-18T14:53:01.000Z</time>
      </trkpt>
      <trkpt lat="49.48352" lon="3.45113">
        <ele>104.24</ele>
        <time>2017-12-18T14:53:11.000Z</time>
      </trkpt>
      <trkpt lat="49.4835" lon="3.45124">
        <ele>103.63</ele>
        <time>2017-12-18T14:53:21.000Z</time>
      </trkpt>
      <trkpt lat="49.48349" lon="3.45133">
        <ele>102.1</ele>
        <time>2017-12-18T14:53:31.000Z</time>
      </trkpt>
      <trkpt lat="49.48346" lon="3.45154">
        <ele>100.26</ele>
        <time>2017-12-18T14:53:41.000Z</time>
      </trkpt>
      <trkpt lat="49.48343" lon="3.45177">
        <ele>99.45</ele>
        <time>2017-12-18T14:53:51.000Z</time>
      </trkpt>
      <trkpt lat="49.48349" lon="3.4519">
        <ele>98.93</ele>
        <time>2017-12-18T14:54:01.000Z</time>
      </trkpt>
      <trkpt lat="49.48369" lon="3.45191">
        <ele>98.98</ele>
        <time>2017-12-18T14:54:11.000Z</time>
      </trkpt>
      <trkpt lat="49.4838" lon="3.45198">
        <ele>98.94</ele>
        <time>2017-12-18T14:54:21.000Z</time>
      </trkpt>
      <trkpt lat="49.48383" lon="3.4521">
        <ele>97.89</ele>
        <time>2017-12-18T14:54:31.000Z</time>
      </trkpt>
      <trkpt lat="49.48398" lon="3.45201">
        <ele>97.46</ele>
        <time>2017-12-18T14:54:41.000Z</time>
      </trkpt>
      <trkpt lat="49.48406" lon="3.45189">
        <ele>96.3</ele>
        <time>2017-12-18T14:54:51.000Z</time>
      </trkpt>
      <trkpt lat="49.48418" lon="3.45183">
        <ele>95.31</ele>
        <time>2017-12-18T14:55:01.000Z</time>
      </trkpt>
      <trkpt lat="49.48429" lon="3.45175">
        <ele>95.23</ele>
        <time>2017-12-18T14:55:11.000Z</time>
      </trkpt>
      <trkpt lat="49.48431" lon="3.45173">
        <ele>95.16</ele>
        <time>2017-12-18T14:55:21.000Z</time>
      </trkpt>
      <trkpt lat="49.48431" lon="3.45175">
        <ele>94.79</ele>
        <time>2017-12-18T14:55:31.000Z</time>
      </trkpt>
      <trkpt lat="49.48428" lon="3.45185">
        <ele>92.45</ele>
        <time>2017-12-18T14:55:41.000Z</time>
      </trkpt>
      <trkpt lat="49.4841" lon="3.45188">
        <ele>91.43</ele>
        <time>2017-12-18T14:55:51.000Z</time>
      </trkpt>
      <trkpt lat="49.48407" lon="3.45193">
        <ele>91.41</ele>
        <time>2017-12-18T14:56:01.000Z</time>
      </trkpt>
      <trkpt lat="49.48412" lon="3.45184">
        <ele>91.31</ele>
        <time>2017-12-18T14:56:11.000Z</time>
      </trkpt>
      <trkpt lat="49.48412" lon="3.45183">
        <ele>91.18</ele>
        <time>2017-12-18T14:56:21.000Z</time>
      </trkpt>
      <trkpt lat="49.4841" lon="3.45186">
        <ele>90.93</ele>
        <time>2017-12-18T14:56:31.000Z</time>
      </trkpt>
      <trkpt lat="49.4841" lon="3.45188">
        <ele>90.87</ele>
        <time>2017-12-18T14:56:41.000Z</time>
      </trkpt>
      <trkpt lat="49.4841" lon="3.4519">
        <ele>90.79</ele>
        <time>2017-12-18T14:56:51.000Z</time>
      </trkpt>
      <trkpt lat="49.48411" lon="3.45189">
        <ele>90.83</ele>
        <time>2017-12-18T14:57:03.000Z</time>
      </trkpt>
      <trkpt lat="49.4841" lon="3.45189">
        <ele>90.8</ele>
        <time>2017-12-18T14:57:15.000Z</time>
      </trkpt>
      <trkpt lat="49.48409" lon="3.45187">
        <ele>90.81</ele>
        <time>2017-12-18T14:57:25.000Z</time>
      </trkpt>
      <trkpt lat="49.48409" lon="3.45188">
        <ele>90.77</ele>
        <time>2017-12-18T14:57:36.000Z</time>
      </trkpt>
      <trkpt lat="49.48411" lon="3.45185">
        <ele>90.4</ele>
        <time>2017-12-18T14:57:46.000Z</time>
      </trkpt>
      <trkpt lat="49.4842" lon="3.45186">
        <ele>89.4</ele>
        <time>2017-12-18T14:57:56.000Z</time>
      </trkpt>
      <trkpt lat="49.48422" lon="3.45187">
        <ele>89.47</ele>
        <time>2017-12-18T14:58:06.000Z</time>
      </trkpt>
      <trkpt lat="49.48413" lon="3.4518">
        <ele>89.37</ele>
        <time>2017-12-18T14:58:16.000Z</time>
      </trkpt>
      <trkpt lat="49.48411" lon="3.45184">
        <ele>89.39</ele>
        <time>2017-12-18T14:58:26.000Z</time>
      </trkpt>
      <trkpt lat="49.48424" lon="3.45211">
        <ele>90.04</ele>
        <time>2017-12-18T14:58:36.000Z</time>
      </trkpt>
      <trkpt lat="49.48429" lon="3.45224">
        <ele>90.24</ele>
        <time>2017-12-18T14:58:46.000Z</time>
      </trkpt>
      <trkpt lat="49.48437" lon="3.45238">
        <ele>90.85</ele>
        <time>2017-12-18T14:58:56.000Z</time>
      </trkpt>
      <trkpt lat="49.48443" lon="3.4525">
        <ele>91.79</ele>
        <time>2017-12-18T14:59:06.000Z</time>
      </trkpt>
      <trkpt lat="49.48449" lon="3.45265">
        <ele>92.71</ele>
        <time>2017-12-18T14:59:16.000Z</time>
      </trkpt>
      <trkpt lat="49.4846" lon="3.45269">
        <ele>93.69</ele>
        <time>2017-12-18T14:59:26.000Z</time>
      </trkpt>
      <trkpt lat="49.48468" lon="3.4527">
        <ele>94.52</ele>
        <time>2017-12-18T14:59:36.000Z</time>
      </trkpt>
      <trkpt lat="49.48474" lon="3.45275">
        <ele>94.57</ele>
        <time>2017-12-18T14:59:46.000Z</time>
      </trkpt>
      <trkpt lat="49.48482" lon="3.45279">
        <ele>94.3</ele>
        <time>2017-12-18T14:59:56.000Z</time>
      </trkpt>
      <trkpt lat="49.48487" lon="3.45284">
        <ele>93.89</ele>
        <time>2017-12-18T15:00:06.000Z</time>
      </trkpt>
      <trkpt lat="49.48499" lon="3.45288">
        <ele>92.78</ele>
        <time>2017-12-18T15:00:16.000Z</time>
      </trkpt>
      <trkpt lat="49.48516" lon="3.45288">
        <ele>91.08</ele>
        <time>2017-12-18T15:00:26.000Z</time>
      </trkpt>
      <trkpt lat="49.48529" lon="3.45293">
        <ele>89.12</ele>
        <time>2017-12-18T15:00:36.000Z</time>
      </trkpt>
      <trkpt lat="49.4854" lon="3.45306">
        <ele>88.16</ele>
        <time>2017-12-18T15:00:46.000Z</time>
      </trkpt>
      <trkpt lat="49.48546" lon="3.45318">
        <ele>88.31</ele>
        <time>2017-12-18T15:00:56.000Z</time>
      </trkpt>
      <trkpt lat="49.48551" lon="3.45329">
        <ele>87.89</ele>
        <time>2017-12-18T15:01:06.000Z</time>
      </trkpt>
      <trkpt lat="49.48558" lon="3.45337">
        <ele>86.45</ele>
        <time>2017-12-18T15:01:16.000Z</time>
      </trkpt>
      <trkpt lat="49.48572" lon="3.45337">
        <ele>85.18</ele>
        <time>2017-12-18T15:01:26.000Z</time>
      </trkpt>
      <trkpt lat="49.48589" lon="3.45336">
        <ele>86.01</ele>
        <time>2017-12-18T15:01:36.000Z</time>
      </trkpt>
      <trkpt lat="49.48602" lon="3.45336">
        <ele>86.83</ele>
        <time>2017-12-18T15:01:46.000Z</time>
      </trkpt>
      <trkpt lat="49.48611" lon="3.4534">
        <ele>87.89</ele>
        <time>2017-12-18T15:01:56.000Z</time>
      </trkpt>
      <trkpt lat="49.48621" lon="3.45342">
        <ele>88.35</ele>
        <time>2017-12-18T15:02:06.000Z</time>
      </trkpt>
      <trkpt lat="49.48635" lon="3.45344">
        <ele>89.17</ele>
        <time>2017-12-18T15:02:16.000Z</time>
      </trkpt>
      <trkpt lat="49.48646" lon="3.45346">
        <ele>89.38</ele>
        <time>2017-12-18T15:02:26.000Z</time>
      </trkpt>
      <trkpt lat="49.48653" lon="3.4535">
        <ele>89.4</ele>
        <time>2017-12-18T15:02:36.000Z</time>
      </trkpt>
      <trkpt lat="49.48658" lon="3.45355">
        <ele>89.21</ele>
        <time>2017-12-18T15:02:46.000Z</time>
      </trkpt>
      <trkpt lat="49.48659" lon="3.45357">
        <ele>89.22</ele>
        <time>2017-12-18T15:02:56.000Z</time>
      </trkpt>
      <trkpt lat="49.48666" lon="3.45358">
        <ele>90.22</ele>
        <time>2017-12-18T15:03:06.000Z</time>
      </trkpt>
      <trkpt lat="49.48679" lon="3.45354">
        <ele>91.24</ele>
        <time>2017-12-18T15:03:16.000Z</time>
      </trkpt>
      <trkpt lat="49.48693" lon="3.45354">
        <ele>92.34</ele>
        <time>2017-12-18T15:03:26.000Z</time>
      </trkpt>
      <trkpt lat="49.48708" lon="3.45355">
        <ele>93.6</ele>
        <time>2017-12-18T15:03:36.000Z</time>
      </trkpt>
      <trkpt lat="49.48716" lon="3.45356">
        <ele>94.5</ele>
        <time>2017-12-18T15:03:46.000Z</time>
      </trkpt>
      <trkpt lat="49.48724" lon="3.45354">
        <ele>94.21</ele>
        <time>2017-12-18T15:03:56.000Z</time>
      </trkpt>
      <trkpt lat="49.48734" lon="3.45355">
        <ele>93.96</ele>
        <time>2017-12-18T15:04:06.000Z</time>
      </trkpt>
      <trkpt lat="49.48745" lon="3.45353">
        <ele>93.24</ele>
        <time>2017-12-18T15:04:16.000Z</time>
      </trkpt>
      <trkpt lat="49.48758" lon="3.45357">
        <ele>93.05</ele>
        <time>2017-12-18T15:04:26.000Z</time>
      </trkpt>
      <trkpt lat="49.48769" lon="3.45353">
        <ele>92.61</ele>
        <time>2017-12-18T15:04:36.000Z</time>
      </trkpt>
      <trkpt lat="49.48785" lon="3.45352">
        <ele>93.23</ele>
        <time>2017-12-18T15:04:46.000Z</time>
      </trkpt>
      <trkpt lat="49.48804" lon="3.45348">
        <ele>93.48</ele>
        <time>2017-12-18T15:04:56.000Z</time>
      </trkpt>
      <trkpt lat="49.48818" lon="3.45346">
        <ele>93.54</ele>
        <time>2017-12-18T15:05:06.000Z</time>
      </trkpt>
      <trkpt lat="49.48829" lon="3.45345">
        <ele>93.43</ele>
        <time>2017-12-18T15:05:16.000Z</time>
      </trkpt>
      <trkpt lat="49.48838" lon="3.45355">
        <ele>93.1</ele>
        <time>2017-12-18T15:05:26.000Z</time>
      </trkpt>
      <trkpt lat="49.48843" lon="3.4537">
        <ele>92.24</ele>
        <time>2017-12-18T15:05:36.000Z</time>
      </trkpt>
      <trkpt lat="49.4885" lon="3.45378">
        <ele>90.63</ele>
        <time>2017-12-18T15:05:46.000Z</time>
      </trkpt>
      <trkpt lat="49.4886" lon="3.45384">
        <ele>89.09</ele>
        <time>2017-12-18T15:05:56.000Z</time>
      </trkpt>
      <trkpt lat="49.48871" lon="3.45386">
        <ele>87.72</ele>
        <time>2017-12-18T15:06:06.000Z</time>
      </trkpt>
      <trkpt lat="49.48882" lon="3.45396">
        <ele>88.06</ele>
        <time>2017-12-18T15:06:16.000Z</time>
      </trkpt>
      <trkpt lat="49.48897" lon="3.45395">
        <ele>89.77</ele>
        <time>2017-12-18T15:06:26.000Z</time>
      </trkpt>
      <trkpt lat="49.48915" lon="3.45394">
        <ele>91.32</ele>
        <time>2017-12-18T15:06:36.000Z</time>
      </trkpt>
      <trkpt lat="49.48926" lon="3.45395">
        <ele>91.76</ele>
        <time>2017-12-18T15:06:46.000Z</time>
      </trkpt>
      <trkpt lat="49.48943" lon="3.45392">
        <ele>91.52</ele>
        <time>2017-12-18T15:06:56.000Z</time>
      </trkpt>
      <trkpt lat="49.48955" lon="3.45385">
        <ele>91.35</ele>
        <time>2017-12-18T15:07:06.000Z</time>
      </trkpt>
      <trkpt lat="49.48964" lon="3.45379">
        <ele>91.11</ele>
        <time>2017-12-18T15:07:16.000Z</time>
      </trkpt>
      <trkpt lat="49.48974" lon="3.45386">
        <ele>89.91</ele>
        <time>2017-12-18T15:07:26.000Z</time>
      </trkpt>
      <trkpt lat="49.48985" lon="3.45384">
        <ele>88.13</ele>
        <time>2017-12-18T15:07:36.000Z</time>
      </trkpt>
      <trkpt lat="49.48993" lon="3.45382">
        <ele>86.19</ele>
        <time>2017-12-18T15:07:46.000Z</time>
      </trkpt>
      <trkpt lat="49.49004" lon="3.45379">
        <ele>84.93</ele>
        <time>2017-12-18T15:07:56.000Z</time>
      </trkpt>
      <trkpt lat="49.49013" lon="3.45378">
        <ele>84.63</ele>
        <time>2017-12-18T15:08:05.999Z</time>
      </trkpt>
      <trkpt lat="49.4903" lon="3.4537">
        <ele>84.26</ele>
        <time>2017-12-18T15:08:15.999Z</time>
      </trkpt>
      <trkpt lat="49.49045" lon="3.4536">
        <ele>83.94</ele>
        <time>2017-12-18T15:08:25.999Z</time>
      </trkpt>
      <trkpt lat="49.49053" lon="3.4535">
        <ele>84.19</ele>
        <time>2017-12-18T15:08:35.999Z</time>
      </trkpt>
      <trkpt lat="49.49061" lon="3.45337">
        <ele>84.82</ele>
        <time>2017-12-18T15:08:45.999Z</time>
      </trkpt>
      <trkpt lat="49.49065" lon="3.45323">
        <ele>85.31</ele>
        <time>2017-12-18T15:08:55.999Z</time>
      </trkpt>
      <trkpt lat="49.49072" lon="3.45304">
        <ele>85.95</ele>
        <time>2017-12-18T15:09:05.999Z</time>
      </trkpt>
      <trkpt lat="49.49079" lon="3.45286">
        <ele>87.25</ele>
        <time>2017-12-18T15:09:15.999Z</time>
      </trkpt>
      <trkpt lat="49.49082" lon="3.45269">
        <ele>87.26</ele>
        <time>2017-12-18T15:09:25.999Z</time>
      </trkpt>
      <trkpt lat="49.49086" lon="3.45261">
        <ele>86.43</ele>
        <time>2017-12-18T15:09:35.999Z</time>
      </trkpt>
      <trkpt lat="49.49095" lon="3.45254">
        <ele>85.28</ele>
        <time>2017-12-18T15:09:45.999Z</time>
      </trkpt>
      <trkpt lat="49.49098" lon="3.45243">
        <ele>83.88</ele>
        <time>2017-12-18T15:09:55.999Z</time>
      </trkpt>
      <trkpt lat="49.49102" lon="3.45232">
        <ele>82.32</ele>
        <time>2017-12-18T15:10:05.999Z</time>
      </trkpt>
      <trkpt lat="49.49108" lon="3.45224">
        <ele>81.48</ele>
        <time>2017-12-18T15:10:15.999Z</time>
      </trkpt>
      <trkpt lat="49.49113" lon="3.45215">
        <ele>81.02</ele>
        <time>2017-12-18T15:10:25.999Z</time>
      </trkpt>
      <trkpt lat="49.49123" lon="3.45205">
        <ele>80.57</ele>
        <time>2017-12-18T15:10:35.999Z</time>
      </trkpt>
      <trkpt lat="49.49134" lon="3.45196">
        <ele>79.93</ele>
        <time>2017-12-18T15:10:45.999Z</time>
      </trkpt>
      <trkpt lat="49.49143" lon="3.45186">
        <ele>79.16</ele>
        <time>2017-12-18T15:10:55.999Z</time>
      </trkpt>
      <trkpt lat="49.4915" lon="3.45175">
        <ele>78.49</ele>
        <time>2017-12-18T15:11:05.999Z</time>
      </trkpt>
      <trkpt lat="49.49158" lon="3.45165">
        <ele>78.31</ele>
        <time>2017-12-18T15:11:15.999Z</time>
      </trkpt>
      <trkpt lat="49.49167" lon="3.45153">
        <ele>77.97</ele>
        <time>2017-12-18T15:11:25.999Z</time>
      </trkpt>
      <trkpt lat="49.49178" lon="3.45139">
        <ele>77.63</ele>
        <time>2017-12-18T15:11:35.999Z</time>
      </trkpt>
      <trkpt lat="49.49187" lon="3.45126">
        <ele>77.48</ele>
        <time>2017-12-18T15:11:45.999Z</time>
      </trkpt>
      <trkpt lat="49.49195" lon="3.45114">
        <ele>77.59</ele>
        <time>2017-12-18T15:11:55.999Z</time>
      </trkpt>
      <trkpt lat="49.49205" lon="3.451">
        <ele>76.96</ele>
        <time>2017-12-18T15:12:05.999Z</time>
      </trkpt>
      <trkpt lat="49.49214" lon="3.45086">
        <ele>76.83</ele>
        <time>2017-12-18T15:12:15.999Z</time>
      </trkpt>
      <trkpt lat="49.49216" lon="3.45068">
        <ele>77.16</ele>
        <time>2017-12-18T15:12:25.999Z</time>
      </trkpt>
      <trkpt lat="49.49218" lon="3.45053">
        <ele>77.67</ele>
        <time>2017-12-18T15:12:35.999Z</time>
      </trkpt>
      <trkpt lat="49.49219" lon="3.45036">
        <ele>77.78</ele>
        <time>2017-12-18T15:12:45.999Z</time>
      </trkpt>
      <trkpt lat="49.49219" lon="3.45018">
        <ele>77.83</ele>
        <time>2017-12-18T15:12:55.999Z</time>
      </trkpt>
      <trkpt lat="49.49221" lon="3.45003">
        <ele>77.78</ele>
        <time>2017-12-18T15:13:05.999Z</time>
      </trkpt>
      <trkpt lat="49.49226" lon="3.44987">
        <ele>78.2</ele>
        <time>2017-12-18T15:13:15.999Z</time>
      </trkpt>
      <trkpt lat="49.49227" lon="3.44972">
        <ele>79.02</ele>
        <time>2017-12-18T15:13:25.999Z</time>
      </trkpt>
      <trkpt lat="49.49224" lon="3.44961">
        <ele>79.52</ele>
        <time>2017-12-18T15:13:35.999Z</time>
      </trkpt>
      <trkpt lat="49.49227" lon="3.44941">
        <ele>79.91</ele>
        <time>2017-12-18T15:13:45.999Z</time>
      </trkpt>
      <trkpt lat="49.49231" lon="3.44923">
        <ele>80.36</ele>
        <time>2017-12-18T15:13:55.999Z</time>
      </trkpt>
      <trkpt lat="49.49234" lon="3.44913">
        <ele>80.65</ele>
        <time>2017-12-18T15:14:01.999Z</time>
      </trkpt>
    </trkseg>
  </trk>
</gpx>